Data Archive--September, 2005

Date Time Heat Index Current Temp Wind Chill High Temp Low Temp Humidity Dew Point Wind Speed Gust Wind Direction Rain Barometer
09/01/2005 12:00 a 73.2 71.7 71.7 71.7 71.5 76 63.7 0.0 4.0 ESE 0.00 29.526
09/01/2005 12:10 a 73.4 71.5 71.5 71.6 71.5 77 63.9 0.0 5.0 ESE 0.00 29.527
09/01/2005 12:20 a 72.2 71.4 71.4 71.5 71.3 76 63.4 0.0 3.0 ESE 0.00 29.539
09/01/2005 12:30 a 72.2 71.3 71.3 71.4 71.2 76 63.4 0.0 3.0 ESE 0.00 29.534
09/01/2005 12:40 a 72.2 71.2 71.2 71.3 71.1 76 63.3 0.0 2.0 ESE 0.00 29.536
09/01/2005 12:50 a 72.4 71.0 71.0 71.2 70.9 77 63.4 0.0 0.0 --- 0.00 29.547
09/01/2005 1:00 a 72.6 70.7 70.7 70.9 70.6 78 63.5 0.0 1.0 ESE 0.00 29.554
09/01/2005 1:10 a 72.6 70.5 70.5 70.6 70.4 78 63.3 0.0 1.0 ESE 0.00 29.553
09/01/2005 1:20 a 71.6 70.3 70.3 70.4 70.2 78 63.1 0.0 1.0 ESE 0.00 29.554
09/01/2005 1:30 a 71.8 70.1 70.1 70.2 70.1 79 63.3 0.0 2.0 ESE 0.00 29.561
09/01/2005 1:40 a 71.8 70.0 70.0 70.1 70.0 79 63.2 0.0 2.0 ESE 0.00 29.562
09/01/2005 1:50 a 71.8 69.9 69.9 70.0 69.8 79 63.1 0.0 1.0 NNE 0.00 29.566
09/01/2005 2:00 a 72.0 69.8 69.8 69.9 69.8 80 63.4 0.0 0.0 --- 0.00 29.565
09/01/2005 2:10 a 72.0 69.8 69.8 69.8 69.7 80 63.4 0.0 2.0 NE 0.00 29.568
09/01/2005 2:20 a 72.0 69.6 69.6 69.7 69.6 80 63.2 0.0 0.0 --- 0.00 29.569
09/01/2005 2:30 a 72.0 69.5 69.5 69.6 69.3 80 63.1 0.0 0.0 --- 0.00 29.574
09/01/2005 2:40 a 71.0 69.3 69.3 69.4 69.1 81 63.2 0.0 0.0 --- 0.00 29.576
09/01/2005 2:50 a 71.0 68.9 68.9 69.1 68.7 82 63.2 0.0 0.0 --- 0.00 29.578
09/01/2005 3:00 a 71.0 68.5 68.5 68.7 68.3 83 63.1 0.0 0.0 --- 0.00 29.577
09/01/2005 3:10 a 70.0 68.1 68.1 68.3 68.0 84 63.1 0.0 0.0 --- 0.00 29.579
09/01/2005 3:20 a 67.9 67.9 67.9 68.0 67.9 84 62.9 0.0 0.0 --- 0.00 29.584
09/01/2005 3:30 a 67.9 67.9 67.9 68.0 67.8 84 62.9 0.0 0.0 --- 0.00 29.591
09/01/2005 3:40 a 67.7 67.7 67.7 67.8 67.7 85 63.0 0.0 0.0 --- 0.00 29.594
09/01/2005 3:50 a 67.6 67.6 67.6 67.7 67.5 86 63.3 0.0 0.0 --- 0.00 29.596
09/01/2005 4:00 a 67.4 67.4 67.4 67.5 67.2 86 63.1 0.0 0.0 --- 0.00 29.599
09/01/2005 4:10 a 67.0 67.0 67.0 67.2 66.9 87 63.0 0.0 0.0 --- 0.00 29.599
09/01/2005 4:20 a 66.8 66.8 66.8 66.9 66.6 87 62.8 0.0 0.0 --- 0.00 29.601
09/01/2005 4:30 a 66.6 66.6 66.6 66.7 66.5 87 62.6 0.0 0.0 --- 0.00 29.608
09/01/2005 4:40 a 66.3 66.3 66.3 66.5 66.2 88 62.6 0.0 0.0 --- 0.00 29.613
09/01/2005 4:50 a 66.1 66.1 66.1 66.2 66.0 88 62.4 0.0 0.0 --- 0.00 29.616
09/01/2005 5:00 a 65.8 65.8 65.8 66.0 65.7 89 62.5 0.0 0.0 --- 0.00 29.623
09/01/2005 5:10 a 65.5 65.5 65.5 65.7 65.4 90 62.5 0.0 0.0 --- 0.00 29.621
09/01/2005 5:20 a 65.4 65.4 65.4 65.4 65.3 91 62.7 0.0 0.0 --- 0.00 29.621
09/01/2005 5:30 a 65.3 65.3 65.3 65.3 65.2 91 62.6 0.0 0.0 --- 0.00 29.631
09/01/2005 5:40 a 65.2 65.2 65.2 65.2 65.1 91 62.5 0.0 0.0 --- 0.00 29.636
09/01/2005 5:50 a 65.1 65.1 65.1 65.2 65.0 92 62.7 0.0 0.0 --- 0.00 29.637
09/01/2005 6:00 a 65.0 65.0 65.0 65.1 64.9 92 62.6 0.0 0.0 --- 0.00 29.642
09/01/2005 6:10 a 64.9 64.9 64.9 65.0 64.9 92 62.5 0.0 0.0 --- 0.00 29.643
09/01/2005 6:20 a 64.9 64.9 64.9 64.9 64.8 93 62.8 0.0 0.0 --- 0.00 29.646
09/01/2005 6:30 a 65.0 65.0 65.0 65.1 64.9 93 62.9 0.0 0.0 --- 0.00 29.651
09/01/2005 6:40 a 65.1 65.1 65.1 65.1 65.0 92 62.7 0.0 0.0 --- 0.00 29.651
09/01/2005 6:50 a 65.1 65.1 65.1 65.2 65.1 93 63.0 0.0 0.0 --- 0.00 29.652
09/01/2005 7:00 a 65.2 65.2 65.2 65.3 65.2 93 63.1 0.0 0.0 --- 0.00 29.654
09/01/2005 7:10 a 65.5 65.5 65.5 65.6 65.3 93 63.4 0.0 0.0 --- 0.00 29.662
09/01/2005 7:20 a 65.8 65.8 65.8 65.9 65.6 93 63.7 0.0 0.0 --- 0.00 29.667
09/01/2005 7:30 a 66.2 66.2 66.2 66.4 65.9 92 63.8 0.0 0.0 --- 0.00 29.668
09/01/2005 7:40 a 66.7 66.7 66.7 67.1 66.4 91 64.0 0.0 0.0 --- 0.00 29.672
09/01/2005 7:50 a 67.4 67.4 67.4 67.7 67.1 90 64.4 0.0 0.0 --- 0.00 29.676
09/01/2005 8:00 a 70.0 68.1 68.1 68.5 67.8 88 64.4 0.0 0.0 --- 0.00 29.675
09/01/2005 8:10 a 71.0 68.9 68.9 69.5 68.5 85 64.2 0.0 2.0 SE 0.00 29.672
09/01/2005 8:20 a 72.0 70.2 70.2 70.8 69.5 80 63.7 0.0 3.0 SE 0.00 29.678
09/01/2005 8:30 a 73.2 71.5 71.5 72.1 70.9 76 63.5 0.0 4.0 E 0.00 29.683
09/01/2005 8:40 a 74.4 72.7 72.7 73.1 72.2 74 63.9 1.0 4.0 ESE 0.00 29.693
09/01/2005 8:50 a 74.2 73.3 73.3 73.4 73.1 72 63.7 1.0 5.0 SE 0.00 29.691
09/01/2005 9:00 a 76.0 73.6 73.6 73.7 73.4 72 64.0 0.0 3.0 SSE 0.00 29.696
09/01/2005 9:10 a 76.0 73.9 73.9 74.1 73.7 70 63.5 1.0 5.0 SE 0.00 29.695
09/01/2005 9:20 a 75.4 74.2 74.2 74.4 74.1 67 62.5 1.0 5.0 SE 0.00 29.698
09/01/2005 9:30 a 76.2 74.6 74.6 74.9 74.4 66 62.5 0.0 5.0 SE 0.00 29.697
09/01/2005 9:40 a 76.0 75.3 75.3 75.6 75.0 65 62.7 0.0 6.0 SE 0.00 29.699
09/01/2005 9:50 a 76.6 75.7 75.7 75.9 75.5 63 62.2 1.0 5.0 SE 0.00 29.698
09/01/2005 10:00 a 76.6 76.0 76.0 76.1 75.9 63 62.5 0.0 5.0 SE 0.00 29.698
09/01/2005 10:10 a 76.4 76.2 76.2 76.3 76.1 62 62.2 0.0 4.0 SE 0.00 29.701
09/01/2005 10:20 a 77.0 76.5 76.5 76.7 76.3 60 61.6 1.0 6.0 SE 0.00 29.702
09/01/2005 10:30 a 77.0 76.8 76.8 76.9 76.7 58 60.9 0.0 4.0 SE 0.00 29.703
09/01/2005 10:40 a 77.0 77.1 77.1 77.3 76.9 58 61.2 1.0 6.0 SE 0.00 29.705
09/01/2005 10:50 a 77.0 77.4 77.4 77.6 77.3 56 60.5 0.0 4.0 SE 0.00 29.703
09/01/2005 11:00 a 78.5 77.8 77.8 78.0 77.6 55 60.4 1.0 6.0 SE 0.00 29.705
09/01/2005 11:10 a 78.4 78.2 78.2 78.3 78.0 54 60.2 1.0 5.0 SE 0.00 29.712
09/01/2005 11:20 a 78.5 78.2 78.2 78.3 78.1 55 60.7 0.0 5.0 SE 0.00 29.710
09/01/2005 11:30 a 78.3 78.4 78.4 78.7 78.2 53 59.9 0.0 4.0 ESE 0.00 29.706
09/01/2005 11:40 a 79.4 78.9 78.9 79.1 78.6 52 59.8 0.0 4.0 ESE 0.00 29.703
09/01/2005 11:50 a 79.2 79.3 79.3 79.6 79.1 51 59.6 0.0 4.0 ESE 0.00 29.707
09/01/2005 12:00 p 80.2 79.8 79.8 80.0 79.6 51 60.1 1.0 3.0 ESE 0.00 29.703
09/01/2005 12:10 p 80.0 80.4 80.4 80.7 80.0 50 60.1 1.0 5.0 SE 0.00 29.704
09/01/2005 12:20 p 81.0 81.2 81.2 81.7 80.7 47 59.1 0.0 4.0 SE 0.00 29.704
09/01/2005 12:30 p 82.6 82.1 82.1 82.5 81.7 46 59.3 0.0 3.0 SE 0.00 29.701
09/01/2005 12:40 p 84.4 82.5 82.5 82.5 82.4 47 60.3 1.0 6.0 SE 0.00 29.702
09/01/2005 12:50 p 83.8 82.7 82.7 83.0 82.4 44 58.6 0.0 3.0 NW 0.00 29.703
09/01/2005 1:00 p 83.8 83.0 83.0 83.1 82.9 44 58.9 1.0 5.0 SE 0.00 29.703
09/01/2005 1:10 p 84.4 83.5 83.5 83.9 83.1 42 58.0 0.0 3.0 SE 0.00 29.701
09/01/2005 1:20 p 84.6 83.6 83.6 83.9 83.5 43 58.8 1.0 8.0 SE 0.00 29.702
09/01/2005 1:30 p 84.4 83.7 83.7 83.9 83.6 42 58.2 1.0 3.0 S 0.00 29.698
09/01/2005 1:40 p 84.0 83.7 83.7 83.7 83.6 40 56.8 1.0 4.0 SE 0.00 29.695
09/01/2005 1:50 p 83.4 83.4 83.4 83.6 83.3 42 57.9 2.0 6.0 SE 0.00 29.695
09/01/2005 2:00 p 83.2 83.4 83.4 83.5 83.3 41 57.3 1.0 5.0 SE 0.00 29.695
09/01/2005 2:10 p 84.4 83.5 83.5 83.6 83.4 42 58.0 1.0 4.0 SE 0.00 29.691
09/01/2005 2:20 p 84.4 83.5 83.5 83.6 83.4 42 58.0 1.0 4.0 SE 0.00 29.691
09/01/2005 2:30 p 84.4 83.5 83.5 83.6 83.4 42 58.0 1.0 6.0 SE 0.00 29.695
09/01/2005 2:40 p 83.4 83.4 83.4 83.5 83.3 42 57.9 1.0 3.0 SE 0.00 29.695
09/01/2005 2:50 p 83.2 83.3 83.3 83.5 83.1 41 57.2 1.0 5.0 ESE 0.00 29.695
09/01/2005 3:00 p 83.4 83.2 83.2 83.3 83.1 42 57.7 1.0 6.0 SE 0.00 29.691
09/01/2005 3:10 p 83.0 83.4 83.4 83.5 83.3 40 56.6 1.0 4.0 ESE 0.00 29.693
09/01/2005 3:20 p 83.0 83.4 83.4 83.5 83.3 40 56.6 1.0 6.0 ESE 0.00 29.693
09/01/2005 3:30 p 84.0 83.5 83.5 83.5 83.4 40 56.7 1.0 5.0 SE 0.00 29.691
09/01/2005 3:40 p 83.0 83.2 83.2 83.4 83.1 40 56.4 1.0 6.0 SE 0.00 29.691
09/01/2005 3:50 p 83.2 83.2 83.2 83.2 83.1 41 57.1 0.0 2.0 NNE 0.00 29.692
09/01/2005 4:00 p 83.2 83.1 83.1 83.2 82.9 41 57.0 1.0 5.0 SE 0.00 29.695
09/01/2005 4:10 p 83.2 82.7 82.7 82.9 82.6 41 56.6 1.0 5.0 SE 0.00 29.691
09/01/2005 4:20 p 83.2 82.6 82.6 82.7 82.4 41 56.5 1.0 4.0 SE 0.00 29.696
09/01/2005 4:30 p 82.2 82.3 82.3 82.4 82.2 42 56.9 1.0 5.0 SE 0.00 29.695
09/01/2005 4:40 p 82.2 82.2 82.2 82.3 82.2 42 56.8 0.0 4.0 SE 0.00 29.694
09/01/2005 4:50 p 82.2 82.2 82.2 82.2 82.1 42 56.8 1.0 5.0 SE 0.00 29.697
09/01/2005 5:00 p 82.1 82.0 82.0 82.1 81.9 41 56.0 1.0 4.0 SE 0.00 29.698
09/01/2005 5:10 p 82.2 81.8 81.8 81.9 81.7 42 56.5 1.0 4.0 SE 0.00 29.700
09/01/2005 5:20 p 82.2 81.6 81.6 81.7 81.5 42 56.3 0.0 4.0 SE 0.00 29.702
09/01/2005 5:30 p 82.2 81.5 81.5 81.5 81.4 42 56.2 1.0 4.0 SE 0.00 29.706
09/01/2005 5:40 p 81.0 81.3 81.3 81.4 81.2 43 56.7 1.0 4.0 SE 0.00 29.709
09/01/2005 5:50 p 81.0 81.1 81.1 81.2 81.0 43 56.5 0.0 4.0 SE 0.00 29.710
09/01/2005 6:00 p 81.0 80.9 80.9 81.0 80.9 42 55.7 0.0 2.0 SE 0.00 29.711
09/01/2005 6:10 p 81.0 80.8 80.8 80.9 80.6 43 56.2 0.0 3.0 SE 0.00 29.712
09/01/2005 6:20 p 81.0 80.5 80.5 80.7 80.5 44 56.6 0.0 3.0 SE 0.00 29.716
09/01/2005 6:30 p 80.0 80.4 80.4 80.5 80.3 46 57.7 0.0 3.0 ENE 0.00 29.714
09/01/2005 6:40 p 80.0 80.2 80.2 80.4 80.0 48 58.8 0.0 0.0 --- 0.00 29.718
09/01/2005 6:50 p 80.0 79.7 79.7 80.0 79.3 48 58.3 0.0 2.0 ENE 0.00 29.718
09/01/2005 7:00 p 79.0 79.1 79.1 79.3 78.8 49 58.3 0.0 0.0 --- 0.00 29.720
09/01/2005 7:10 p 78.3 78.4 78.4 78.8 77.9 53 59.9 0.0 0.0 --- 0.00 29.724
09/01/2005 7:20 p 77.0 77.3 77.3 77.9 76.4 54 59.4 0.0 0.0 --- 0.00 29.727
09/01/2005 7:30 p 76.0 75.7 75.7 76.3 75.1 58 59.9 0.0 0.0 --- 0.00 29.728
09/01/2005 7:40 p 75.2 74.6 74.6 75.1 74.2 61 60.3 0.0 0.0 --- 0.00 29.729
09/01/2005 7:50 p 74.4 73.6 73.6 74.1 73.2 62 59.8 0.0 0.0 --- 0.00 29.734
09/01/2005 8:00 p 73.3 72.8 72.8 73.1 72.3 63 59.5 0.0 0.0 --- 0.00 29.736
09/01/2005 8:10 p 72.0 71.9 71.9 72.3 71.5 65 59.5 0.0 0.0 --- 0.00 29.743
09/01/2005 8:20 p 71.0 71.1 71.1 71.5 70.8 65 58.8 0.0 0.0 --- 0.00 29.749
09/01/2005 8:30 p 71.0 70.5 70.5 70.8 70.2 68 59.4 0.0 0.0 --- 0.00 29.749
09/01/2005 8:40 p 70.0 70.0 70.0 70.2 69.7 69 59.4 0.0 0.0 --- 0.00 29.749
09/01/2005 8:50 p 70.0 69.6 69.6 69.7 69.4 69 59.0 0.0 0.0 --- 0.00 29.753
09/01/2005 9:00 p 69.2 69.2 69.2 69.4 69.0 71 59.4 0.0 0.0 --- 0.00 29.751
09/01/2005 9:10 p 69.4 68.8 68.8 69.0 68.6 72 59.4 0.0 0.0 --- 0.00 29.755
09/01/2005 9:20 p 68.6 68.4 68.4 68.6 68.3 73 59.4 0.0 0.0 --- 0.00 29.760
09/01/2005 9:30 p 68.6 68.1 68.1 68.3 67.9 73 59.1 0.0 0.0 --- 0.00 29.758
09/01/2005 9:40 p 67.6 67.6 67.6 67.9 67.1 75 59.4 0.0 0.0 --- 0.00 29.766
09/01/2005 9:50 p 66.8 66.8 66.8 67.1 66.4 76 59.0 0.0 0.0 --- 0.00 29.765
09/01/2005 10:00 p 66.2 66.2 66.2 66.4 66.0 78 59.1 0.0 0.0 --- 0.00 29.769
09/01/2005 10:10 p 65.8 65.8 65.8 66.0 65.7 79 59.1 0.0 0.0 --- 0.00 29.773
09/01/2005 10:20 p 65.7 65.7 65.7 65.7 65.6 79 59.0 0.0 0.0 --- 0.00 29.774
09/01/2005 10:30 p 65.5 65.5 65.5 65.6 65.3 79 58.8 0.0 0.0 --- 0.00 29.774
09/01/2005 10:40 p 65.2 65.2 65.2 65.4 65.1 80 58.9 0.0 0.0 --- 0.00 29.774
09/01/2005 10:50 p 65.0 65.0 65.0 65.1 64.9 81 59.0 0.0 0.0 --- 0.00 29.781
09/01/2005 11:00 p 64.8 64.8 64.8 64.9 64.6 81 58.8 0.0 0.0 --- 0.00 29.780
09/01/2005 11:10 p 64.5 64.5 64.5 64.7 64.4 82 58.9 0.0 0.0 --- 0.00 29.783
09/01/2005 11:20 p 64.3 64.3 64.3 64.4 64.1 83 59.0 0.0 0.0 --- 0.00 29.785
09/01/2005 11:30 p 63.9 63.9 63.9 64.1 63.7 84 59.0 0.0 0.0 --- 0.00 29.783
09/01/2005 11:40 p 63.7 63.7 63.7 63.7 63.6 84 58.8 0.0 0.0 --- 0.00 29.785
09/01/2005 11:50 p 63.6 63.6 63.6 63.7 63.5 85 59.0 0.0 0.0 --- 0.00 29.787
09/02/2005 12:00 a 63.4 63.4 63.4 63.5 63.4 85 58.8 0.0 0.0 --- 0.00 29.785
09/02/2005 12:10 a 63.3 63.3 63.3 63.4 63.2 85 58.7 0.0 0.0 --- 0.00 29.788
09/02/2005 12:20 a 63.1 63.1 63.1 63.2 63.0 86 58.9 0.0 0.0 --- 0.00 29.788
09/02/2005 12:30 a 62.9 62.9 62.9 63.0 62.9 86 58.7 0.0 0.0 --- 0.00 29.788
09/02/2005 12:40 a 62.8 62.8 62.8 62.9 62.8 87 58.9 0.0 0.0 --- 0.00 29.789
09/02/2005 12:50 a 62.6 62.6 62.6 62.8 62.5 87 58.7 0.0 0.0 --- 0.00 29.785
09/02/2005 1:00 a 62.4 62.4 62.4 62.5 62.3 88 58.8 0.0 0.0 --- 0.00 29.786
09/02/2005 1:10 a 62.2 62.2 62.2 62.3 62.1 88 58.6 0.0 0.0 --- 0.00 29.788
09/02/2005 1:20 a 62.0 62.0 62.0 62.1 61.9 88 58.4 0.0 0.0 --- 0.00 29.785
09/02/2005 1:30 a 61.9 61.9 61.9 62.0 61.8 89 58.6 0.0 0.0 --- 0.00 29.786
09/02/2005 1:40 a 61.8 61.8 61.8 61.8 61.7 88 58.2 0.0 0.0 --- 0.00 29.789
09/02/2005 1:50 a 61.7 61.7 61.7 61.8 61.6 89 58.4 0.0 0.0 --- 0.00 29.792
09/02/2005 2:00 a 61.6 61.6 61.6 61.7 61.5 89 58.3 0.0 0.0 --- 0.00 29.791
09/02/2005 2:10 a 61.4 61.4 61.4 61.5 61.3 88 57.8 0.0 0.0 --- 0.00 29.791
09/02/2005 2:20 a 61.3 61.3 61.3 61.3 61.2 89 58.0 0.0 0.0 --- 0.00 29.792
09/02/2005 2:30 a 61.1 61.1 61.1 61.2 61.1 89 57.8 0.0 0.0 --- 0.00 29.788
09/02/2005 2:40 a 61.0 61.0 61.0 61.1 61.0 89 57.7 0.0 0.0 --- 0.00 29.792
09/02/2005 2:50 a 60.9 60.9 60.9 61.0 60.8 90 58.0 0.0 0.0 --- 0.00 29.793
09/02/2005 3:00 a 60.7 60.7 60.7 60.8 60.6 90 57.8 0.0 0.0 --- 0.00 29.795
09/02/2005 3:10 a 60.6 60.6 60.6 60.6 60.5 91 58.0 0.0 0.0 --- 0.00 29.799
09/02/2005 3:20 a 60.4 60.4 60.4 60.6 60.4 91 57.8 0.0 0.0 --- 0.00 29.799
09/02/2005 3:30 a 60.3 60.3 60.3 60.4 60.2 91 57.7 0.0 0.0 --- 0.00 29.799
09/02/2005 3:40 a 60.2 60.2 60.2 60.3 60.1 91 57.6 0.0 0.0 --- 0.00 29.802
09/02/2005 3:50 a 60.1 60.1 60.1 60.2 60.0 92 57.8 0.0 0.0 --- 0.00 29.801
09/02/2005 4:00 a 60.0 60.0 60.0 60.1 60.0 91 57.4 0.0 0.0 --- 0.00 29.806
09/02/2005 4:10 a 60.0 60.0 60.0 60.0 60.0 93 58.0 0.0 0.0 --- 0.00 29.802
09/02/2005 4:20 a 60.0 60.0 60.0 60.1 60.0 93 58.0 0.0 0.0 --- 0.00 29.806
09/02/2005 4:30 a 60.0 60.0 60.0 60.0 60.0 93 58.0 0.0 0.0 --- 0.00 29.802
09/02/2005 4:40 a 60.0 60.0 60.0 60.0 59.9 92 57.7 0.0 0.0 --- 0.00 29.805
09/02/2005 4:50 a 59.8 59.8 59.8 59.9 59.8 92 57.5 0.0 0.0 --- 0.00 29.806
09/02/2005 5:00 a 59.8 59.8 59.8 59.8 59.8 93 57.8 0.0 0.0 --- 0.00 29.806
09/02/2005 5:10 a 59.9 59.9 59.9 59.9 59.8 93 57.9 0.0 0.0 --- 0.00 29.807
09/02/2005 5:20 a 59.9 59.9 59.9 59.9 59.9 93 57.9 0.0 0.0 --- 0.00 29.809
09/02/2005 5:30 a 59.9 59.9 59.9 60.0 59.9 93 57.9 0.0 0.0 --- 0.00 29.807
09/02/2005 5:40 a 59.9 59.9 59.9 59.9 59.8 93 57.9 0.0 0.0 --- 0.00 29.813
09/02/2005 5:50 a 59.8 59.8 59.8 59.9 59.8 93 57.8 0.0 0.0 --- 0.00 29.813
09/02/2005 6:00 a 59.8 59.8 59.8 59.8 59.8 93 57.8 0.0 0.0 --- 0.00 29.814
09/02/2005 6:10 a 59.7 59.7 59.7 59.8 59.7 93 57.7 0.0 0.0 --- 0.00 29.816
09/02/2005 6:20 a 59.7 59.7 59.7 59.7 59.7 93 57.7 0.0 0.0 --- 0.00 29.820
09/02/2005 6:30 a 59.7 59.7 59.7 59.7 59.7 94 58.0 0.0 0.0 --- 0.00 29.819
09/02/2005 6:40 a 59.7 59.7 59.7 59.8 59.7 94 58.0 0.0 0.0 --- 0.00 29.821
09/02/2005 6:50 a 59.9 59.9 59.9 59.9 59.8 94 58.2 0.0 0.0 --- 0.00 29.822
09/02/2005 7:00 a 60.0 60.0 60.0 60.1 59.9 94 58.3 0.0 0.0 --- 0.00 29.819
09/02/2005 7:10 a 60.3 60.3 60.3 60.4 60.1 94 58.6 0.0 2.0 ENE 0.00 29.820
09/02/2005 7:20 a 60.6 60.6 60.6 60.8 60.4 94 58.9 0.0 0.0 --- 0.00 29.817
09/02/2005 7:30 a 61.0 61.0 61.0 61.3 60.8 95 59.6 0.0 0.0 --- 0.00 29.819
09/02/2005 7:40 a 61.6 61.6 61.6 62.0 61.3 95 60.2 0.0 0.0 --- 0.00 29.819
09/02/2005 7:50 a 62.4 62.4 62.4 62.8 62.0 94 60.7 0.0 0.0 --- 0.00 29.820
09/02/2005 8:00 a 63.2 63.2 63.2 63.8 62.8 91 60.5 0.0 0.0 --- 0.00 29.818
09/02/2005 8:10 a 64.6 64.6 64.6 65.4 63.9 89 61.3 0.0 0.0 --- 0.00 29.819
09/02/2005 8:20 a 66.2 66.2 66.2 66.9 65.4 85 61.6 0.0 0.0 --- 0.00 29.816
09/02/2005 8:30 a 67.6 67.6 67.6 68.4 66.9 82 61.9 0.0 0.0 --- 0.00 29.820
09/02/2005 8:40 a 70.4 69.3 69.3 70.1 68.5 77 61.8 0.0 0.0 --- 0.00 29.821
09/02/2005 8:50 a 71.8 70.8 70.8 71.5 70.1 74 62.1 0.0 0.0 --- 0.00 29.821
09/02/2005 9:00 a 72.0 72.2 72.2 72.8 71.5 69 61.5 0.0 0.0 --- 0.00 29.826
09/02/2005 9:10 a 73.7 73.4 73.4 73.9 72.8 67 61.8 0.0 0.0 --- 0.00 29.820
09/02/2005 9:20 a 75.2 74.5 74.5 75.1 73.9 61 60.2 0.0 0.0 --- 0.00 29.824
09/02/2005 9:30 a 76.0 75.7 75.7 76.2 75.1 59 60.4 0.0 0.0 --- 0.00 29.827
09/02/2005 9:40 a 77.0 76.5 76.5 76.9 76.2 57 60.2 0.0 0.0 --- 0.00 29.826
09/02/2005 9:50 a 77.0 77.1 77.1 77.4 76.8 55 59.7 0.0 0.0 --- 0.00 29.824
09/02/2005 10:00 a 78.3 77.7 77.7 78.0 77.4 53 59.2 0.0 0.0 --- 0.00 29.826
09/02/2005 10:10 a 78.1 78.2 78.2 78.4 78.0 51 58.6 0.0 0.0 --- 0.00 29.824
09/02/2005 10:20 a 79.2 78.7 78.7 78.9 78.4 51 59.1 0.0 0.0 --- 0.00 29.823
09/02/2005 10:30 a 79.4 79.2 79.2 79.5 78.9 52 60.1 0.0 0.0 --- 0.00 29.817
09/02/2005 10:40 a 80.0 79.8 79.8 80.0 79.5 48 58.4 0.0 0.0 --- 0.00 29.817
09/02/2005 10:50 a 80.0 80.2 80.2 80.5 79.9 48 58.8 0.0 0.0 --- 0.00 29.817
09/02/2005 11:00 a 81.0 80.7 80.7 80.9 80.5 48 59.2 0.0 0.0 --- 0.00 29.814
09/02/2005 11:10 a 81.0 81.0 81.0 81.1 80.8 48 59.5 0.0 0.0 --- 0.00 29.811
09/02/2005 11:20 a 81.0 81.4 81.4 81.7 81.1 47 59.3 0.0 0.0 --- 0.00 29.812
09/02/2005 11:30 a 82.6 82.0 82.0 82.2 81.7 46 59.2 0.0 0.0 --- 0.00 29.807
09/02/2005 11:40 a 82.6 82.4 82.4 82.6 82.2 46 59.6 0.0 0.0 --- 0.00 29.803
09/02/2005 11:50 a 83.6 82.8 82.8 83.0 82.6 43 58.0 0.0 0.0 --- 0.00 29.795
09/02/2005 12:00 p 83.8 83.2 83.2 83.5 83.0 44 59.0 0.0 0.0 --- 0.00 29.791
09/02/2005 12:10 p 84.6 83.9 83.9 84.4 83.5 43 59.0 0.0 0.0 --- 0.00 29.787
09/02/2005 12:20 p 85.0 85.0 85.0 85.6 84.4 40 58.0 0.0 0.0 --- 0.00 29.783
09/02/2005 12:30 p 85.8 86.1 86.1 86.6 85.6 39 58.3 0.0 0.0 --- 0.00 29.779
09/02/2005 12:40 p 86.8 86.9 86.9 87.3 86.5 39 59.0 0.0 0.0 --- 0.00 29.775
09/02/2005 12:50 p 87.6 87.6 87.6 88.0 87.3 38 58.9 0.0 0.0 --- 0.00 29.777
09/02/2005 1:00 p 87.2 88.2 88.2 88.4 87.9 36 57.9 0.0 0.0 --- 0.00 29.768
09/02/2005 1:10 p 87.0 88.4 88.4 88.5 88.3 35 57.3 0.0 0.0 --- 0.00 29.766
09/02/2005 1:20 p 87.0 88.3 88.3 88.4 88.3 35 57.2 0.0 0.0 --- 0.00 29.759
09/02/2005 1:30 p 86.6 88.4 88.4 88.5 88.3 33 55.7 0.0 0.0 --- 0.00 29.759
09/02/2005 1:40 p 87.6 88.5 88.5 88.6 88.4 32 54.9 0.0 2.0 SE 0.00 29.754
09/02/2005 1:50 p 87.9 88.5 88.5 88.6 88.4 33 55.8 0.0 4.0 NNW 0.00 29.750
09/02/2005 2:00 p 86.6 88.3 88.3 88.5 88.1 33 55.6 1.0 4.0 SE 0.00 29.746
09/02/2005 2:10 p 86.6 88.1 88.1 88.2 88.1 33 55.4 1.0 4.0 ESE 0.00 29.741
09/02/2005 2:20 p 87.0 87.9 87.9 88.1 87.8 35 56.9 0.0 4.0 E 0.00 29.736
09/02/2005 2:30 p 87.0 88.0 88.0 88.1 87.9 35 56.9 1.0 4.0 ESE 0.00 29.734
09/02/2005 2:40 p 87.0 88.0 88.0 88.1 87.8 35 56.9 1.0 8.0 SE 0.00 29.729
09/02/2005 2:50 p 87.4 87.9 87.9 88.1 87.8 37 58.4 0.0 4.0 SSE 0.00 29.724
09/02/2005 3:00 p 87.4 88.1 88.1 88.2 88.0 37 58.6 1.0 4.0 SE 0.00 29.723
09/02/2005 3:10 p 87.4 87.8 87.8 88.0 87.5 37 58.3 1.0 5.0 SE 0.00 29.721
09/02/2005 3:20 p 86.6 87.4 87.4 87.5 87.3 38 58.7 1.0 4.0 ESE 0.00 29.721
09/02/2005 3:30 p 86.6 87.3 87.3 87.4 87.3 38 58.6 0.0 3.0 SE 0.00 29.720
09/02/2005 3:40 p 86.6 87.2 87.2 87.3 87.1 38 58.5 1.0 4.0 SE 0.00 29.714
09/02/2005 3:50 p 86.8 87.0 87.0 87.1 87.0 39 59.1 1.0 5.0 SE 0.00 29.709
09/02/2005 4:00 p 87.0 87.0 87.0 87.1 87.0 40 59.8 0.0 3.0 E 0.00 29.710
09/02/2005 4:10 p 87.0 87.0 87.0 87.1 86.8 40 59.8 0.0 3.0 ESE 0.00 29.709
09/02/2005 4:20 p 86.2 86.4 86.4 86.8 86.1 41 59.9 0.0 3.0 SW 0.00 29.708
09/02/2005 4:30 p 86.2 85.9 85.9 86.1 85.8 41 59.5 0.0 4.0 SE 0.00 29.704
09/02/2005 4:40 p 86.4 85.7 85.7 85.8 85.5 42 60.0 0.0 2.0 SE 0.00 29.704
09/02/2005 4:50 p 85.4 85.4 85.4 85.5 85.4 42 59.7 0.0 4.0 E 0.00 29.705
09/02/2005 5:00 p 85.6 85.4 85.4 85.4 85.3 43 60.4 0.0 5.0 NNW 0.00 29.706
09/02/2005 5:10 p 85.6 85.3 85.3 85.3 85.2 43 60.3 0.0 2.0 WNW 0.00 29.701
09/02/2005 5:20 p 85.8 85.2 85.2 85.3 85.2 44 60.8 0.0 3.0 NNW 0.00 29.704
09/02/2005 5:30 p 85.8 85.1 85.1 85.3 84.9 44 60.8 0.0 3.0 SSE 0.00 29.700
09/02/2005 5:40 p 85.8 84.7 84.7 84.9 84.5 44 60.4 0.0 2.0 S 0.00 29.699
09/02/2005 5:50 p 85.8 84.5 84.5 84.6 84.5 44 60.2 0.0 3.0 S 0.00 29.702
09/02/2005 6:00 p 84.8 84.4 84.4 84.5 84.3 44 60.1 0.0 2.0 E 0.00 29.702
09/02/2005 6:10 p 85.0 84.3 84.3 84.3 84.3 45 60.7 0.0 2.0 E 0.00 29.701
09/02/2005 6:20 p 85.2 84.1 84.1 84.3 83.8 46 61.1 0.0 2.0 E 0.00 29.706
09/02/2005 6:30 p 85.4 83.6 83.6 83.9 83.4 47 61.3 0.0 0.0 --- 0.00 29.705
09/02/2005 6:40 p 84.4 83.2 83.2 83.4 83.1 47 60.9 0.0 0.0 --- 0.00 29.710
09/02/2005 6:50 p 84.6 83.0 83.0 83.1 82.8 48 61.3 0.0 0.0 --- 0.00 29.714
09/02/2005 7:00 p 84.6 82.5 82.5 82.7 82.3 48 60.9 0.0 2.0 E 0.00 29.718
09/02/2005 7:10 p 82.9 82.1 82.1 82.3 81.8 49 61.1 0.0 1.0 ENE 0.00 29.719
09/02/2005 7:20 p 81.0 81.4 81.4 81.8 81.0 50 61.0 0.0 0.0 --- 0.00 29.721
09/02/2005 7:30 p 81.2 80.7 80.7 81.0 80.4 51 60.9 0.0 0.0 --- 0.00 29.722
09/02/2005 7:40 p 80.4 80.0 80.0 80.3 79.6 52 60.8 0.0 0.0 --- 0.00 29.726
09/02/2005 7:50 p 80.0 79.2 79.2 79.7 78.8 55 61.7 0.0 0.0 --- 0.00 29.726
09/02/2005 8:00 p 78.8 78.2 78.2 78.8 77.7 58 62.2 0.0 0.0 --- 0.00 29.728
09/02/2005 8:10 p 77.2 77.2 77.2 77.7 76.8 61 62.7 0.0 0.0 --- 0.00 29.731
09/02/2005 8:20 p 76.4 76.2 76.2 76.8 75.7 62 62.2 0.0 0.0 --- 0.00 29.731
09/02/2005 8:30 p 75.6 75.3 75.3 75.7 74.9 63 61.8 0.0 0.0 --- 0.00 29.734
09/02/2005 8:40 p 76.0 74.6 74.6 74.9 74.4 65 62.1 0.0 0.0 --- 0.00 29.737
09/02/2005 8:50 p 75.2 74.3 74.3 74.4 74.1 66 62.2 0.0 0.0 --- 0.00 29.742
09/02/2005 9:00 p 75.4 74.0 74.0 74.1 73.8 67 62.4 0.0 0.0 --- 0.00 29.745
09/02/2005 9:10 p 75.4 73.5 73.5 73.8 73.3 67 61.9 0.0 0.0 --- 0.00 29.748
09/02/2005 9:20 p 73.9 73.1 73.1 73.3 72.8 69 62.3 0.0 0.0 --- 0.00 29.749
09/02/2005 9:30 p 74.0 72.6 72.6 72.9 72.2 70 62.3 0.0 0.0 --- 0.00 29.755
09/02/2005 9:40 p 72.4 71.9 71.9 72.2 71.6 72 62.4 0.0 0.0 --- 0.00 29.755
09/02/2005 9:50 p 71.8 71.4 71.4 71.6 71.1 74 62.7 0.0 0.0 --- 0.00 29.753
09/02/2005 10:00 p 71.8 71.0 71.0 71.1 70.9 74 62.3 0.0 0.0 --- 0.00 29.755
09/02/2005 10:10 p 71.8 70.9 70.9 70.9 70.8 74 62.2 0.0 0.0 --- 0.00 29.763
09/02/2005 10:20 p 71.8 70.7 70.7 70.8 70.5 74 62.0 0.0 0.0 --- 0.00 29.759
09/02/2005 10:30 p 71.0 70.3 70.3 70.6 70.0 75 62.0 0.0 0.0 --- 0.00 29.759
09/02/2005 10:40 p 71.0 69.7 69.7 70.0 69.5 75 61.4 0.0 0.0 --- 0.00 29.765
09/02/2005 10:50 p 70.4 69.4 69.4 69.5 69.2 77 61.9 0.0 0.0 --- 0.00 29.770
09/02/2005 11:00 p 70.6 68.9 68.9 69.2 68.7 78 61.8 0.0 0.0 --- 0.00 29.771
09/02/2005 11:10 p 70.6 68.5 68.5 68.7 68.4 78 61.4 0.0 0.0 --- 0.00 29.774
09/02/2005 11:20 p 69.4 68.3 68.3 68.4 68.1 77 60.8 0.0 0.0 --- 0.00 29.773
09/02/2005 11:30 p 68.6 68.4 68.4 68.8 68.1 73 59.4 0.0 0.0 --- 0.00 29.779
09/02/2005 11:40 p 69.0 69.3 69.3 70.1 68.8 61 55.3 0.0 2.0 ENE 0.00 29.781
09/02/2005 11:50 p 70.4 71.0 71.0 71.7 70.2 57 55.0 0.0 2.0 ENE 0.00 29.785
09/03/2005 12:00 a 71.6 72.1 72.1 72.3 71.7 56 55.6 0.0 2.0 ENE 0.00 29.786
09/03/2005 12:10 a 71.6 72.4 72.4 72.5 72.3 56 55.8 0.0 2.0 ENE 0.00 29.787
09/03/2005 12:20 a 71.9 72.1 72.1 72.4 71.7 59 57.0 0.0 0.0 --- 0.00 29.791
09/03/2005 12:30 a 71.0 71.2 71.2 71.7 70.6 61 57.1 0.0 0.0 --- 0.00 29.792
09/03/2005 12:40 a 70.0 70.1 70.1 70.6 69.6 63 56.9 0.0 0.0 --- 0.00 29.795
09/03/2005 12:50 a 69.0 69.2 69.2 69.6 69.0 61 55.2 0.0 2.0 ENE 0.00 29.794
09/03/2005 1:00 a 69.6 69.8 69.8 70.3 69.2 58 54.4 0.0 3.0 ESE 0.00 29.798
09/03/2005 1:10 a 69.8 70.4 70.4 70.5 70.3 59 55.4 0.0 0.0 --- 0.00 29.800
09/03/2005 1:20 a 70.0 70.0 70.0 70.4 69.6 60 55.5 0.0 0.0 --- 0.00 29.801
09/03/2005 1:30 a 69.0 69.3 69.3 69.6 69.2 61 55.3 0.0 0.0 --- 0.00 29.805
09/03/2005 1:40 a 69.0 69.2 69.2 69.2 69.1 61 55.2 0.0 0.0 --- 0.00 29.809
09/03/2005 1:50 a 69.0 69.1 69.1 69.2 69.0 62 55.5 0.0 0.0 --- 0.00 29.813
09/03/2005 2:00 a 69.0 68.9 68.9 69.0 68.7 62 55.4 0.0 0.0 --- 0.00 29.810
09/03/2005 2:10 a 69.0 68.5 68.5 68.8 68.3 63 55.4 0.0 0.0 --- 0.00 29.812
09/03/2005 2:20 a 68.0 68.0 68.0 68.3 67.7 64 55.4 0.0 0.0 --- 0.00 29.816
09/03/2005 2:30 a 67.3 67.3 67.3 67.7 66.9 66 55.6 0.0 0.0 --- 0.00 29.817
09/03/2005 2:40 a 66.7 66.7 66.7 66.9 66.5 67 55.4 0.0 0.0 --- 0.00 29.816
09/03/2005 2:50 a 66.3 66.3 66.3 66.5 66.1 68 55.4 0.0 0.0 --- 0.00 29.817
09/03/2005 3:00 a 65.9 65.9 65.9 66.1 65.7 70 55.9 0.0 0.0 --- 0.00 29.819
09/03/2005 3:10 a 65.5 65.5 65.5 65.7 65.4 70 55.5 0.0 1.0 ESE 0.00 29.821
09/03/2005 3:20 a 65.5 65.5 65.5 65.8 65.4 69 55.1 0.0 0.0 --- 0.00 29.831
09/03/2005 3:30 a 65.9 65.9 65.9 65.9 65.8 68 55.1 0.0 0.0 --- 0.00 29.830
09/03/2005 3:40 a 65.9 65.9 65.9 66.1 65.8 64 53.4 1.0 5.0 ESE 0.00 29.832
09/03/2005 3:50 a 67.0 67.0 67.0 67.7 66.1 60 52.7 0.0 3.0 ESE 0.00 29.831
09/03/2005 4:00 a 67.8 68.0 68.0 68.2 67.6 59 53.2 0.0 3.0 SE 0.00 29.837
09/03/2005 4:10 a 67.6 68.3 68.3 68.3 68.2 58 53.0 1.0 4.0 SE 0.00 29.837
09/03/2005 4:20 a 67.6 68.2 68.2 68.3 68.2 58 52.9 1.0 5.0 ESE 0.00 29.841
09/03/2005 4:30 a 67.6 68.2 68.2 68.3 68.1 58 52.9 1.0 3.0 SE 0.00 29.844
09/03/2005 4:40 a 67.6 68.1 68.1 68.2 68.1 58 52.8 1.0 4.0 ESE 0.00 29.847
09/03/2005 4:50 a 67.6 68.0 68.0 68.1 67.8 58 52.7 0.0 3.0 ESE 0.00 29.850
09/03/2005 5:00 a 67.7 67.7 67.7 67.8 67.5 59 52.9 0.0 2.0 ESE 0.00 29.852
09/03/2005 5:10 a 67.3 67.3 67.3 67.5 67.1 60 53.0 0.0 2.0 ESE 0.00 29.850
09/03/2005 5:20 a 67.0 67.0 67.0 67.1 66.9 61 53.1 0.0 1.0 ESE 0.00 29.853
09/03/2005 5:30 a 66.8 66.8 66.8 66.9 66.5 63 53.8 0.0 0.0 --- 0.00 29.859
09/03/2005 5:40 a 66.2 66.2 66.2 66.5 65.8 64 53.7 0.0 0.0 --- 0.00 29.868
09/03/2005 5:50 a 65.3 65.3 65.3 65.8 64.8 66 53.7 0.0 0.0 --- 0.00 29.869
09/03/2005 6:00 a 64.4 64.4 64.4 64.8 64.0 69 54.0 0.0 0.0 --- 0.00 29.872
09/03/2005 6:10 a 63.4 63.4 63.4 64.0 63.0 71 53.8 0.0 0.0 --- 0.00 29.872
09/03/2005 6:20 a 62.7 62.7 62.7 63.0 62.3 72 53.6 0.0 0.0 --- 0.00 29.876
09/03/2005 6:30 a 62.0 62.0 62.0 62.3 61.8 75 54.0 0.0 0.0 --- 0.00 29.876
09/03/2005 6:40 a 61.7 61.7 61.7 61.8 61.7 75 53.7 0.0 0.0 --- 0.00 29.877
09/03/2005 6:50 a 61.8 61.8 61.8 61.9 61.7 76 54.2 0.0 0.0 --- 0.00 29.877
09/03/2005 7:00 a 62.1 62.1 62.1 62.3 61.9 75 54.1 0.0 0.0 --- 0.00 29.883
09/03/2005 7:10 a 62.6 62.6 62.6 63.0 62.3 74 54.2 0.0 0.0 --- 0.00 29.881
09/03/2005 7:20 a 63.5 63.5 63.5 64.1 63.0 72 54.3 0.0 0.0 --- 0.00 29.883
09/03/2005 7:30 a 65.0 65.0 65.0 65.8 64.1 68 54.2 0.0 3.0 ESE 0.00 29.885
09/03/2005 7:40 a 66.5 66.5 66.5 66.9 65.8 66 54.8 0.0 3.0 ESE 0.00 29.886
09/03/2005 7:50 a 67.2 67.2 67.2 67.5 66.9 65 55.1 0.0 2.0 ESE 0.00 29.890
09/03/2005 8:00 a 67.7 67.7 67.7 67.9 67.5 64 55.1 0.0 4.0 ESE 0.00 29.891
09/03/2005 8:10 a 68.0 68.1 68.1 68.4 67.9 63 55.0 0.0 5.0 SE 0.00 29.886
09/03/2005 8:20 a 69.0 68.6 68.6 68.8 68.4 62 55.1 0.0 4.0 SE 0.00 29.888
09/03/2005 8:30 a 69.0 69.1 69.1 69.4 68.8 62 55.5 0.0 4.0 SE 0.00 29.890
09/03/2005 8:40 a 70.0 69.7 69.7 70.0 69.4 61 55.7 0.0 4.0 SE 0.00 29.889
09/03/2005 8:50 a 70.0 70.2 70.2 70.3 70.0 61 56.1 0.0 4.0 SE 0.00 29.888
09/03/2005 9:00 a 71.0 70.5 70.5 70.7 70.3 61 56.4 0.0 4.0 SE 0.00 29.896
09/03/2005 9:10 a 70.8 70.9 70.9 71.1 70.7 59 55.9 1.0 4.0 SE 0.00 29.894
09/03/2005 9:20 a 70.6 71.3 71.3 71.4 71.1 58 55.8 0.0 5.0 E 0.00 29.897
09/03/2005 9:30 a 71.7 71.6 71.6 71.8 71.5 57 55.6 1.0 4.0 SE 0.00 29.899
09/03/2005 9:40 a 71.7 71.9 71.9 72.1 71.7 57 55.9 1.0 5.0 SE 0.00 29.897
09/03/2005 9:50 a 71.7 72.1 72.1 72.2 72.1 57 56.0 1.0 5.0 ESE 0.00 29.899
09/03/2005 10:00 a 71.5 72.4 72.4 72.6 72.2 55 55.3 1.0 6.0 SE 0.00 29.897
09/03/2005 10:10 a 73.0 72.8 72.8 73.0 72.6 55 55.7 1.0 5.0 SE 0.00 29.894
09/03/2005 10:20 a 73.0 73.2 73.2 73.4 73.0 53 55.1 1.0 5.0 SE 0.00 29.892
09/03/2005 10:30 a 74.0 73.6 73.6 73.9 73.4 52 54.9 1.0 6.0 SE 0.00 29.889
09/03/2005 10:40 a 74.0 74.0 74.0 74.2 73.8 53 55.8 1.0 4.0 SE 0.00 29.885
09/03/2005 10:50 a 74.0 74.4 74.4 74.7 74.2 51 55.1 1.0 7.0 SE 0.00 29.885
09/03/2005 11:00 a 74.8 74.9 74.9 75.1 74.7 49 54.5 1.0 7.0 SE 0.00 29.886
09/03/2005 11:10 a 74.6 75.4 75.4 75.6 75.1 48 54.4 2.0 5.0 SE 0.00 29.885
09/03/2005 11:20 a 75.4 75.6 75.6 75.9 75.5 47 54.0 1.0 6.0 SE 0.00 29.884
09/03/2005 11:30 a 75.6 76.2 76.2 76.4 75.9 48 55.1 1.0 8.0 SE 0.00 29.882
09/03/2005 11:40 a 76.4 76.6 76.6 76.7 76.4 47 54.9 1.0 5.0 SE 0.00 29.885
09/03/2005 11:50 a 76.6 76.7 76.7 76.8 76.6 48 55.6 1.0 4.0 SE 0.00 29.885
09/03/2005 12:00 p 76.6 77.0 77.0 77.2 76.8 48 55.8 1.0 5.0 SE 0.00 29.878
09/03/2005 12:10 p 76.4 77.3 77.3 77.4 77.1 47 55.5 1.0 4.0 SE 0.00 29.875
09/03/2005 12:20 p 77.4 77.7 77.7 78.2 77.2 44 54.1 1.0 6.0 SE 0.00 29.873
09/03/2005 12:30 p 79.0 78.5 78.5 78.9 78.2 44 54.8 1.0 5.0 SE 0.00 29.870
09/03/2005 12:40 p 79.0 79.0 79.0 79.0 78.9 44 55.2 1.0 5.0 ESE 0.00 29.873
09/03/2005 12:50 p 79.0 79.2 79.2 79.3 79.0 43 54.8 1.0 4.0 SE 0.00 29.870
09/03/2005 1:00 p 79.0 79.2 79.2 79.3 79.1 42 54.2 2.0 6.0 SE 0.00 29.866
09/03/2005 1:10 p 80.0 79.7 79.7 79.9 79.2 42 54.6 1.0 5.0 ESE 0.00 29.868
09/03/2005 1:20 p 79.0 78.9 78.9 79.7 78.4 43 54.5 1.0 4.0 SE 0.00 29.865
09/03/2005 1:30 p 79.0 78.9 78.9 79.3 78.4 42 53.9 1.0 6.0 SE 0.00 29.863
09/03/2005 1:40 p 79.0 78.8 78.8 79.3 78.4 43 54.4 1.0 5.0 SE 0.00 29.859
09/03/2005 1:50 p 79.0 78.7 78.7 79.1 78.4 42 53.7 1.0 6.0 ESE 0.00 29.856
09/03/2005 2:00 p 80.0 79.5 79.5 79.7 79.1 41 53.8 1.0 7.0 SE 0.00 29.856
09/03/2005 2:10 p 80.0 79.7 79.7 79.9 79.5 41 53.9 1.0 4.0 ESE 0.00 29.851
09/03/2005 2:20 p 79.0 79.4 79.4 79.9 79.2 40 53.0 0.0 3.0 SE 0.00 29.851
09/03/2005 2:30 p 79.0 79.3 79.3 79.6 79.2 40 52.9 1.0 4.0 SE 0.00 29.850
09/03/2005 2:40 p 79.8 80.1 80.1 80.4 79.7 39 52.9 1.0 5.0 ESE 0.00 29.849
09/03/2005 2:50 p 80.4 80.5 80.5 80.6 80.4 37 51.9 1.0 5.0 SE 0.00 29.851
09/03/2005 3:00 p 80.8 80.5 80.5 80.6 80.4 39 53.3 1.0 7.0 ESE 0.00 29.849
09/03/2005 3:10 p 80.0 80.3 80.3 80.4 80.2 40 53.8 1.0 3.0 ESE 0.00 29.847
09/03/2005 3:20 p 80.0 80.3 80.3 80.4 80.0 40 53.8 1.0 5.0 ESE 0.00 29.848
09/03/2005 3:30 p 79.8 80.0 80.0 80.1 79.8 39 52.8 1.0 4.0 SE 0.00 29.849
09/03/2005 3:40 p 79.0 79.1 79.1 79.9 78.4 40 52.7 1.0 5.0 SE 0.00 29.849
09/03/2005 3:50 p 77.2 77.9 77.9 78.4 77.5 42 53.0 1.0 5.0 SE 0.00 29.852
09/03/2005 4:00 p 75.4 77.4 77.4 77.5 77.3 42 52.5 0.0 3.0 ESE 0.00 29.852
09/03/2005 4:10 p 75.4 77.2 77.2 77.4 77.1 42 52.4 1.0 6.0 ESE 0.00 29.846
09/03/2005 4:20 p 77.2 77.5 77.5 77.8 77.1 42 52.6 1.0 4.0 ESE 0.00 29.844
09/03/2005 4:30 p 76.9 78.1 78.1 78.4 77.8 39 51.2 1.0 5.0 SE 0.00 29.849
09/03/2005 4:40 p 78.8 78.5 78.5 78.5 78.4 39 51.5 1.0 5.0 SE 0.00 29.850
09/03/2005 4:50 p 79.0 78.5 78.5 78.5 78.4 40 52.2 1.0 5.0 ESE 0.00 29.849
09/03/2005 5:00 p 79.0 78.5 78.5 78.5 78.4 40 52.2 1.0 4.0 SE 0.00 29.852
09/03/2005 5:10 p 77.1 78.4 78.4 78.5 78.3 41 52.8 0.0 3.0 SE 0.00 29.853
09/03/2005 5:20 p 77.1 78.2 78.2 78.3 78.0 41 52.6 1.0 4.0 ESE 0.00 29.856
09/03/2005 5:30 p 77.1 77.9 77.9 78.0 77.8 41 52.3 0.0 4.0 ESE 0.00 29.857
09/03/2005 5:40 p 77.1 77.8 77.8 77.8 77.7 41 52.2 1.0 5.0 SE 0.00 29.856
09/03/2005 5:50 p 77.2 77.6 77.6 77.7 77.6 42 52.7 0.0 4.0 SE 0.00 29.860
09/03/2005 6:00 p 77.2 77.5 77.5 77.6 77.4 42 52.6 0.0 4.0 ESE 0.00 29.857
09/03/2005 6:10 p 75.6 77.3 77.3 77.4 77.1 43 53.1 1.0 4.0 ESE 0.00 29.854
09/03/2005 6:20 p 76.0 77.0 77.0 77.2 76.7 45 54.1 0.0 0.0 --- 0.00 29.854
09/03/2005 6:30 p 75.4 76.4 76.4 76.7 76.1 47 54.7 0.0 2.0 ESE 0.00 29.856
09/03/2005 6:40 p 75.8 75.7 75.7 76.1 75.4 49 55.2 0.0 1.0 ESE 0.00 29.859
09/03/2005 6:50 p 75.0 75.0 75.0 75.4 74.6 50 55.1 0.0 0.0 --- 0.00 29.860
09/03/2005 7:00 p 74.0 74.2 74.2 74.5 73.8 53 56.0 0.0 0.0 --- 0.00 29.865
09/03/2005 7:10 p 73.0 73.4 73.4 73.8 73.1 55 56.3 0.0 0.0 --- 0.00 29.867
09/03/2005 7:20 p 73.0 72.5 72.5 73.1 71.9 57 56.4 0.0 0.0 --- 0.00 29.868
09/03/2005 7:30 p 71.0 71.4 71.4 71.9 71.1 62 57.7 0.0 1.0 SE 0.00 29.873
09/03/2005 7:40 p 71.0 71.2 71.2 71.2 71.1 63 58.0 0.0 0.0 --- 0.00 29.871
09/03/2005 7:50 p 70.8 71.0 71.0 71.2 70.8 59 56.0 0.0 0.0 --- 0.00 29.876
09/03/2005 8:00 p 71.0 70.5 70.5 70.8 70.1 61 56.4 0.0 0.0 --- 0.00 29.887
09/03/2005 8:10 p 70.0 69.8 69.8 70.1 69.4 62 56.2 0.0 0.0 --- 0.00 29.888
09/03/2005 8:20 p 69.0 69.1 69.1 69.3 68.8 63 56.0 0.0 0.0 --- 0.00 29.892
09/03/2005 8:30 p 68.0 68.4 68.4 68.8 68.0 65 56.2 0.0 0.0 --- 0.00 29.896
09/03/2005 8:40 p 67.6 67.6 67.6 68.0 67.3 66 55.9 0.0 0.0 --- 0.00 29.898
09/03/2005 8:50 p 67.1 67.1 67.1 67.3 66.8 67 55.8 0.0 0.0 --- 0.00 29.901
09/03/2005 9:00 p 66.6 66.6 66.6 66.8 66.4 68 55.7 0.0 0.0 --- 0.00 29.905
09/03/2005 9:10 p 66.2 66.2 66.2 66.4 66.0 70 56.1 0.0 0.0 --- 0.00 29.906
09/03/2005 9:20 p 65.9 65.9 65.9 66.1 65.7 70 55.9 0.0 0.0 --- 0.00 29.911
09/03/2005 9:30 p 65.5 65.5 65.5 65.7 65.3 71 55.9 0.0 0.0 --- 0.00 29.912
09/03/2005 9:40 p 65.1 65.1 65.1 65.3 64.9 72 55.9 0.0 0.0 --- 0.00 29.911
09/03/2005 9:50 p 64.8 64.8 64.8 64.9 64.7 72 55.6 0.0 0.0 --- 0.00 29.910
09/03/2005 10:00 p 64.9 64.9 64.9 65.2 64.7 71 55.3 0.0 0.0 --- 0.00 29.908
09/03/2005 10:10 p 65.6 65.6 65.6 65.9 65.2 71 56.0 0.0 0.0 --- 0.00 29.912
09/03/2005 10:20 p 65.9 65.9 65.9 66.0 65.9 70 55.9 0.0 0.0 --- 0.00 29.916
09/03/2005 10:30 p 66.0 66.0 66.0 66.2 65.9 68 55.1 0.0 0.0 --- 0.00 29.914
09/03/2005 10:40 p 66.6 66.6 66.6 66.9 66.1 67 55.3 0.0 0.0 --- 0.00 29.919
09/03/2005 10:50 p 66.9 66.9 66.9 67.0 66.7 69 56.4 0.0 0.0 --- 0.00 29.919
09/03/2005 11:00 p 66.5 66.5 66.5 66.7 66.2 69 56.0 0.0 0.0 --- 0.00 29.918
09/03/2005 11:10 p 66.0 66.0 66.0 66.2 65.7 69 55.6 0.0 0.0 --- 0.00 29.922
09/03/2005 11:20 p 65.5 65.5 65.5 65.7 65.3 70 55.5 0.0 0.0 --- 0.00 29.918
09/03/2005 11:30 p 65.0 65.0 65.0 65.3 64.8 71 55.4 0.0 0.0 --- 0.00 29.920
09/03/2005 11:40 p 64.7 64.7 64.7 64.8 64.6 73 55.9 0.0 0.0 --- 0.00 29.923
09/03/2005 11:50 p 64.6 64.6 64.6 64.9 64.5 72 55.4 0.0 1.0 SE 0.00 29.925
09/04/2005 12:00 a 65.5 65.5 65.5 66.3 64.9 68 54.7 0.0 2.0 SE 0.00 29.930
09/04/2005 12:10 a 66.6 66.6 66.6 66.7 66.3 69 56.1 0.0 0.0 --- 0.00 29.927
09/04/2005 12:20 a 66.3 66.3 66.3 66.6 66.0 70 56.2 0.0 0.0 --- 0.00 29.925
09/04/2005 12:30 a 65.7 65.7 65.7 65.9 65.4 71 56.1 0.0 0.0 --- 0.00 29.929
09/04/2005 12:40 a 65.1 65.1 65.1 65.4 64.8 72 55.9 0.0 0.0 --- 0.00 29.928
09/04/2005 12:50 a 64.5 64.5 64.5 64.8 64.2 74 56.0 0.0 0.0 --- 0.00 29.928
09/04/2005 1:00 a 64.0 64.0 64.0 64.2 63.7 74 55.6 0.0 0.0 --- 0.00 29.930
09/04/2005 1:10 a 63.5 63.5 63.5 63.7 63.2 76 55.8 0.0 0.0 --- 0.00 29.930
09/04/2005 1:20 a 62.9 62.9 62.9 63.2 62.7 76 55.2 0.0 0.0 --- 0.00 29.935
09/04/2005 1:30 a 62.5 62.5 62.5 62.8 62.3 77 55.2 0.0 0.0 --- 0.00 29.937
09/04/2005 1:40 a 62.2 62.2 62.2 62.3 62.0 78 55.3 0.0 0.0 --- 0.00 29.938
09/04/2005 1:50 a 61.8 61.8 61.8 62.0 61.5 79 55.2 0.0 0.0 --- 0.00 29.935
09/04/2005 2:00 a 61.3 61.3 61.3 61.5 61.1 81 55.4 0.0 0.0 --- 0.00 29.935
09/04/2005 2:10 a 60.9 60.9 60.9 61.1 60.7 81 55.0 0.0 0.0 --- 0.00 29.939
09/04/2005 2:20 a 60.5 60.5 60.5 60.7 60.3 82 55.0 0.0 0.0 --- 0.00 29.936
09/04/2005 2:30 a 60.2 60.2 60.2 60.3 60.0 82 54.7 0.0 0.0 --- 0.00 29.938
09/04/2005 2:40 a 59.9 59.9 59.9 60.0 59.7 83 54.7 0.0 0.0 --- 0.00 29.935
09/04/2005 2:50 a 59.6 59.6 59.6 59.7 59.5 84 54.8 0.0 0.0 --- 0.00 29.938
09/04/2005 3:00 a 59.4 59.4 59.4 59.5 59.3 84 54.6 0.0 0.0 --- 0.00 29.939
09/04/2005 3:10 a 59.3 59.3 59.3 59.4 59.2 84 54.5 0.0 0.0 --- 0.00 29.944
09/04/2005 3:20 a 59.1 59.1 59.1 59.2 59.0 85 54.6 0.0 0.0 --- 0.00 29.948
09/04/2005 3:30 a 58.8 58.8 58.8 59.0 58.6 85 54.3 0.0 0.0 --- 0.00 29.944
09/04/2005 3:40 a 58.5 58.5 58.5 58.7 58.4 86 54.3 0.0 0.0 --- 0.00 29.947
09/04/2005 3:50 a 58.3 58.3 58.3 58.4 58.2 87 54.5 0.0 0.0 --- 0.00 29.951
09/04/2005 4:00 a 58.2 58.2 58.2 58.3 58.1 87 54.4 0.0 0.0 --- 0.00 29.951
09/04/2005 4:10 a 58.0 58.0 58.0 58.1 57.9 87 54.2 0.0 0.0 --- 0.00 29.951
09/04/2005 4:20 a 57.8 57.8 57.8 57.9 57.7 87 54.0 0.0 0.0 --- 0.00 29.954
09/04/2005 4:30 a 57.7 57.7 57.7 57.8 57.5 88 54.2 0.0 0.0 --- 0.00 29.956
09/04/2005 4:40 a 57.4 57.4 57.4 57.5 57.2 88 53.9 0.0 0.0 --- 0.00 29.962
09/04/2005 4:50 a 57.0 57.0 57.0 57.2 56.8 90 54.1 0.0 0.0 --- 0.00 29.962
09/04/2005 5:00 a 56.8 56.8 56.8 56.9 56.8 90 53.9 0.0 0.0 --- 0.00 29.967
09/04/2005 5:10 a 56.8 56.8 56.8 56.8 56.8 90 53.9 0.0 0.0 --- 0.00 29.968
09/04/2005 5:20 a 56.8 56.8 56.8 56.8 56.7 90 53.9 0.0 0.0 --- 0.00 29.969
09/04/2005 5:30 a 56.7 56.7 56.7 56.7 56.6 90 53.8 0.0 0.0 --- 0.00 29.969
09/04/2005 5:40 a 56.5 56.5 56.5 56.6 56.4 90 53.6 0.0 0.0 --- 0.00 29.969
09/04/2005 5:50 a 56.3 56.3 56.3 56.4 56.2 90 53.4 0.0 0.0 --- 0.00 29.975
09/04/2005 6:00 a 56.2 56.2 56.2 56.3 56.1 90 53.3 0.0 0.0 --- 0.00 29.971
09/04/2005 6:10 a 56.1 56.1 56.1 56.2 56.1 90 53.2 0.0 0.0 --- 0.00 29.973
09/04/2005 6:20 a 56.0 56.0 56.0 56.1 56.0 91 53.4 0.0 0.0 --- 0.00 29.977
09/04/2005 6:30 a 56.0 56.0 56.0 56.0 56.0 91 53.4 0.0 0.0 --- 0.00 29.979
09/04/2005 6:40 a 56.0 56.0 56.0 56.0 56.0 91 53.4 0.0 0.0 --- 0.00 29.984
09/04/2005 6:50 a 56.0 56.0 56.0 56.1 56.0 92 53.7 0.0 0.0 --- 0.00 29.986
09/04/2005 7:00 a 56.2 56.2 56.2 56.3 56.1 92 53.9 0.0 0.0 --- 0.00 29.985
09/04/2005 7:10 a 56.5 56.5 56.5 56.7 56.3 92 54.2 0.0 0.0 --- 0.00 29.989
09/04/2005 7:20 a 56.8 56.8 56.8 57.1 56.6 93 54.8 0.0 0.0 --- 0.00 29.990
09/04/2005 7:30 a 57.4 57.4 57.4 57.7 57.1 93 55.4 0.0 0.0 --- 0.00 29.997
09/04/2005 7:40 a 58.2 58.2 58.2 58.7 57.7 93 56.2 0.0 0.0 --- 0.00 29.998
09/04/2005 7:50 a 59.3 59.3 59.3 60.0 58.7 90 56.4 0.0 0.0 --- 0.00 29.996
09/04/2005 8:00 a 60.6 60.6 60.6 61.4 60.0 88 57.0 0.0 0.0 --- 0.00 30.001
09/04/2005 8:10 a 62.2 62.2 62.2 63.1 61.4 84 57.3 0.0 0.0 --- 0.00 30.000
09/04/2005 8:20 a 64.0 64.0 64.0 64.9 63.1 80 57.7 0.0 0.0 --- 0.00 30.005
09/04/2005 8:30 a 66.0 66.0 66.0 67.1 64.9 76 58.2 0.0 0.0 --- 0.00 30.004
09/04/2005 8:40 a 67.9 67.9 67.9 68.6 67.1 73 58.9 0.0 4.0 ESE 0.00 30.004
09/04/2005 8:50 a 69.2 69.2 69.2 69.8 68.6 71 59.4 0.0 2.0 ESE 0.00 30.013
09/04/2005 9:00 a 70.0 70.2 70.2 70.6 69.8 67 58.7 0.0 4.0 ESE 0.00 30.017
09/04/2005 9:10 a 71.0 71.1 71.1 71.5 70.6 65 58.8 0.0 3.0 SE 0.00 30.019
09/04/2005 9:20 a 72.0 71.9 71.9 72.3 71.5 62 58.2 1.0 5.0 SE 0.00 30.017
09/04/2005 9:30 a 73.0 72.5 72.5 72.7 72.3 60 57.8 1.0 5.0 SE 0.00 30.015
09/04/2005 9:40 a 73.0 73.0 73.0 73.3 72.7 59 57.8 0.0 3.0 SE 0.00 30.013
09/04/2005 9:50 a 74.0 73.6 73.6 73.9 73.3 57 57.4 1.0 3.0 SE 0.00 30.017
09/04/2005 10:00 a 74.0 74.2 74.2 74.5 73.9 55 57.0 1.0 5.0 ESE 0.00 30.018
09/04/2005 10:10 a 75.0 74.7 74.7 74.9 74.5 54 57.0 0.0 1.0 ESE 0.00 30.022
09/04/2005 10:20 a 75.0 75.1 75.1 75.3 74.9 55 57.8 0.0 1.0 ESE 0.00 30.018
09/04/2005 10:30 a 76.0 75.8 75.8 76.2 75.3 50 55.9 1.0 5.0 SE 0.00 30.019
09/04/2005 10:40 a 76.4 76.6 76.6 76.9 76.2 47 54.9 1.0 4.0 SE 0.00 30.016
09/04/2005 10:50 a 76.6 77.0 77.0 77.1 76.9 48 55.8 2.0 4.0 SE 0.00 30.016
09/04/2005 11:00 a 76.6 77.2 77.2 77.3 77.0 48 56.0 1.0 4.0 SE 0.00 30.015
09/04/2005 11:10 a 76.6 77.4 77.4 77.7 77.3 48 56.2 1.0 5.0 SE 0.00 30.015
09/04/2005 11:20 a 77.6 77.8 77.8 77.9 77.7 46 55.4 1.0 5.0 SE 0.00 30.018
09/04/2005 11:30 a 77.7 78.0 78.0 78.1 77.9 47 56.2 0.0 2.0 W 0.00 30.013
09/04/2005 11:40 a 77.6 78.2 78.2 78.5 78.1 46 55.7 0.0 3.0 SSW 0.00 30.018
09/04/2005 11:50 a 79.0 78.8 78.8 79.1 78.5 45 55.7 1.0 4.0 ESE 0.00 30.015
09/04/2005 12:00 p 79.0 79.3 79.3 79.5 79.1 46 56.7 0.0 2.0 ESE 0.00 30.013
09/04/2005 12:10 p 80.0 80.0 80.0 80.3 79.5 45 56.8 1.0 6.0 SE 0.00 30.016
09/04/2005 12:20 p 80.0 80.3 80.3 80.6 80.2 45 57.0 0.0 0.0 --- 0.00 30.018
09/04/2005 12:30 p 81.0 80.6 80.6 80.7 80.4 43 56.1 0.0 1.0 --- 0.00 30.017
09/04/2005 12:40 p 80.0 80.4 80.4 80.9 80.2 43 55.9 0.0 2.0 NE 0.00 30.012
09/04/2005 12:50 p 81.0 81.2 81.2 81.3 80.9 42 55.9 0.0 3.0 SE 0.00 30.013
09/04/2005 1:00 p 82.1 81.6 81.6 81.8 81.3 41 55.6 0.0 3.0 SE 0.00 30.012
09/04/2005 1:10 p 82.0 81.8 81.8 82.1 81.7 40 55.1 1.0 4.0 SE 0.00 30.009
09/04/2005 1:20 p 82.0 81.9 81.9 82.2 81.5 40 55.2 1.0 4.0 SE 0.00 30.015
09/04/2005 1:30 p 82.0 81.6 81.6 82.1 81.4 40 55.0 0.0 3.0 SE 0.00 30.006
09/04/2005 1:40 p 81.6 82.2 82.2 82.4 82.1 38 54.1 1.0 5.0 SE 0.00 30.004
09/04/2005 1:50 p 82.6 82.5 82.5 82.7 82.4 38 54.4 1.0 4.0 SE 0.00 29.999
09/04/2005 2:00 p 83.0 82.9 82.9 83.1 82.4 40 56.1 0.0 4.0 ESE 0.00 30.002
09/04/2005 2:10 p 81.8 81.9 81.9 82.3 81.7 39 54.5 1.0 4.0 SE 0.00 30.000
09/04/2005 2:20 p 82.0 82.1 82.1 82.4 81.8 40 55.4 1.0 5.0 ESE 0.00 29.997
09/04/2005 2:30 p 83.6 82.5 82.5 82.8 82.3 43 57.8 1.0 4.0 SE 0.00 29.996
09/04/2005 2:40 p 83.0 82.6 82.6 82.9 82.3 40 55.9 1.0 4.0 SE 0.00 30.000
09/04/2005 2:50 p 83.0 82.5 82.5 82.5 82.3 40 55.8 1.0 6.0 SE 0.00 30.000
09/04/2005 3:00 p 82.8 82.6 82.6 82.7 82.5 39 55.2 0.0 0.0 --- 0.00 30.000
09/04/2005 3:10 p 82.0 82.1 82.1 82.6 81.5 40 55.4 0.0 1.0 --- 0.00 30.004
09/04/2005 3:20 p 81.0 81.0 81.0 81.5 80.5 41 55.1 0.0 3.0 SE 0.00 30.003
09/04/2005 3:30 p 79.8 80.4 80.4 80.6 80.2 39 53.2 1.0 5.0 SE 0.00 30.008
09/04/2005 3:40 p 81.0 81.1 81.1 81.4 80.7 40 54.5 1.0 4.0 SE 0.00 30.004
09/04/2005 3:50 p 81.8 81.7 81.7 82.2 81.4 39 54.4 0.0 3.0 SE 0.00 30.008
09/04/2005 4:00 p 81.4 82.4 82.4 82.4 82.2 37 53.5 0.0 3.0 SE 0.00 30.007
09/04/2005 4:10 p 81.6 82.3 82.3 82.4 82.3 38 54.2 0.0 3.0 SE 0.00 30.010
09/04/2005 4:20 p 81.8 82.2 82.2 82.3 82.1 39 54.8 1.0 4.0 SE 0.00 30.012
09/04/2005 4:30 p 81.6 81.9 81.9 82.1 81.7 38 53.8 1.0 6.0 SE 0.00 30.016
09/04/2005 4:40 p 82.3 81.8 81.8 82.0 81.7 43 57.1 0.0 2.0 SE 0.00 30.014
09/04/2005 4:50 p 82.4 81.7 81.7 81.9 81.5 44 57.7 0.0 2.0 N 0.00 30.017
09/04/2005 5:00 p 81.0 81.2 81.2 81.5 80.8 46 58.5 0.0 2.0 NNE 0.00 30.016
09/04/2005 5:10 p 81.0 80.5 80.5 80.8 80.1 47 58.4 0.0 2.0 NNE 0.00 30.020
09/04/2005 5:20 p 80.0 79.9 79.9 80.1 79.7 48 58.5 0.0 2.0 N 0.00 30.019
09/04/2005 5:30 p 80.0 79.5 79.5 79.7 79.3 48 58.1 0.0 0.0 --- 0.00 30.023
09/04/2005 5:40 p 79.0 79.2 79.2 79.4 78.9 47 57.3 0.0 0.0 --- 0.00 30.023
09/04/2005 5:50 p 79.0 78.7 78.7 78.9 78.5 46 56.2 0.0 0.0 --- 0.00 30.025
09/04/2005 6:00 p 77.7 78.3 78.3 78.5 78.1 47 56.4 0.0 0.0 --- 0.00 30.027
09/04/2005 6:10 p 77.8 77.9 77.9 78.1 77.6 48 56.7 0.0 0.0 --- 0.00 30.030
09/04/2005 6:20 p 77.0 77.3 77.3 77.6 76.8 52 58.3 0.0 0.0 --- 0.00 30.031
09/04/2005 6:30 p 76.0 76.4 76.4 76.9 75.8 56 59.6 0.0 0.0 --- 0.00 30.033
09/04/2005 6:40 p 75.0 75.4 75.4 75.8 75.0 56 58.6 0.0 0.0 --- 0.00 30.035
09/04/2005 6:50 p 75.0 74.6 74.6 75.0 74.3 56 57.9 0.0 0.0 --- 0.00 30.042
09/04/2005 7:00 p 74.0 74.0 74.0 74.3 73.7 58 58.3 0.0 0.0 --- 0.00 30.042
09/04/2005 7:10 p 73.0 73.4 73.4 73.7 73.1 60 58.7 0.0 0.0 --- 0.00 30.047
09/04/2005 7:20 p 73.0 72.9 72.9 73.1 72.7 59 57.7 0.0 0.0 --- 0.00 30.048
09/04/2005 7:30 p 73.0 72.5 72.5 72.7 72.3 60 57.8 0.0 0.0 --- 0.00 30.055
09/04/2005 7:40 p 72.0 72.1 72.1 72.3 71.9 61 57.9 0.0 0.0 --- 0.00 30.061
09/04/2005 7:50 p 72.0 71.7 71.7 71.9 71.4 62 58.0 0.0 0.0 --- 0.00 30.067
09/04/2005 8:00 p 71.0 71.2 71.2 71.4 71.0 63 58.0 0.0 0.0 --- 0.00 30.069
09/04/2005 8:10 p 71.0 70.8 70.8 71.0 70.6 63 57.6 0.0 0.0 --- 0.00 30.077
09/04/2005 8:20 p 70.0 70.4 70.4 70.6 70.3 65 58.1 0.0 0.0 --- 0.00 30.081
09/04/2005 8:30 p 70.0 70.0 70.0 70.3 69.8 65 57.7 0.0 0.0 --- 0.00 30.083
09/04/2005 8:40 p 70.0 69.5 69.5 69.8 69.2 66 57.7 0.0 0.0 --- 0.00 30.086
09/04/2005 8:50 p 69.0 68.9 68.9 69.1 68.6 67 57.5 0.0 0.0 --- 0.00 30.090
09/04/2005 9:00 p 68.0 68.4 68.4 68.6 68.2 67 57.0 0.0 0.0 --- 0.00 30.094
09/04/2005 9:10 p 67.9 67.9 67.9 68.2 67.7 68 57.0 0.0 0.0 --- 0.00 30.099
09/04/2005 9:20 p 67.5 67.5 67.5 67.7 67.3 69 57.0 0.0 0.0 --- 0.00 30.101
09/04/2005 9:30 p 67.1 67.1 67.1 67.3 66.8 70 57.0 0.0 0.0 --- 0.00 30.105
09/04/2005 9:40 p 66.6 66.6 66.6 66.8 66.4 72 57.3 0.0 0.0 --- 0.00 30.111
09/04/2005 9:50 p 66.3 66.3 66.3 66.4 66.1 72 57.0 0.0 0.0 --- 0.00 30.113
09/04/2005 10:00 p 66.0 66.0 66.0 66.1 65.9 73 57.1 0.0 0.0 --- 0.00 30.115
09/04/2005 10:10 p 65.8 65.8 65.8 65.9 65.7 73 56.9 0.0 0.0 --- 0.00 30.121
09/04/2005 10:20 p 65.6 65.6 65.6 65.8 65.5 73 56.7 0.0 0.0 --- 0.00 30.122
09/04/2005 10:30 p 65.5 65.5 65.5 65.6 65.5 74 57.0 0.0 0.0 --- 0.00 30.124
09/04/2005 10:40 p 65.5 65.5 65.5 65.6 65.4 74 57.0 0.0 0.0 --- 0.00 30.125
09/04/2005 10:50 p 65.3 65.3 65.3 65.4 65.1 74 56.8 0.0 0.0 --- 0.00 30.128
09/04/2005 11:00 p 65.0 65.0 65.0 65.2 64.9 74 56.5 0.0 0.0 --- 0.00 30.128
09/04/2005 11:10 p 64.8 64.8 64.8 64.9 64.7 75 56.7 0.0 0.0 --- 0.00 30.130
09/04/2005 11:20 p 64.7 64.7 64.7 64.8 64.7 75 56.6 0.0 0.0 --- 0.00 30.133
09/04/2005 11:30 p 64.6 64.6 64.6 64.7 64.5 76 56.9 0.0 0.0 --- 0.00 30.133
09/04/2005 11:40 p 64.5 64.5 64.5 64.5 64.4 76 56.8 0.0 0.0 --- 0.00 30.135
09/04/2005 11:50 p 64.3 64.3 64.3 64.4 64.3 76 56.6 0.0 0.0 --- 0.00 30.139
09/05/2005 12:00 a 64.3 64.3 64.3 64.3 64.2 77 56.9 0.0 0.0 --- 0.00 30.140
09/05/2005 12:10 a 64.1 64.1 64.1 64.2 63.9 77 56.8 0.0 0.0 --- 0.00 30.139
09/05/2005 12:20 a 63.8 63.8 63.8 63.9 63.7 77 56.5 0.0 0.0 --- 0.00 30.139
09/05/2005 12:30 a 63.6 63.6 63.6 63.7 63.6 77 56.3 0.0 0.0 --- 0.00 30.146
09/05/2005 12:40 a 63.6 63.6 63.6 63.7 63.6 76 55.9 0.0 0.0 --- 0.00 30.145
09/05/2005 12:50 a 64.1 64.1 64.1 64.5 63.7 74 55.7 0.0 0.0 --- 0.00 30.146
09/05/2005 1:00 a 64.8 64.8 64.8 65.2 64.5 72 55.6 0.0 0.0 --- 0.00 30.148
09/05/2005 1:10 a 65.5 65.5 65.5 65.8 65.2 71 55.9 0.0 0.0 --- 0.00 30.148
09/05/2005 1:20 a 66.1 66.1 66.1 66.3 65.8 70 56.0 0.0 0.0 --- 0.00 30.151
09/05/2005 1:30 a 66.5 66.5 66.5 66.6 66.3 69 56.0 0.0 0.0 --- 0.00 30.152
09/05/2005 1:40 a 66.8 66.8 66.8 66.9 66.6 68 55.9 0.0 0.0 --- 0.00 30.154
09/05/2005 1:50 a 67.0 67.0 67.0 67.1 66.9 67 55.7 0.0 0.0 --- 0.00 30.154
09/05/2005 2:00 a 67.1 67.1 67.1 67.2 67.1 67 55.8 0.0 0.0 --- 0.00 30.153
09/05/2005 2:10 a 67.1 67.1 67.1 67.2 67.1 67 55.8 0.0 0.0 --- 0.00 30.155
09/05/2005 2:20 a 67.1 67.1 67.1 67.2 67.1 67 55.8 0.0 0.0 --- 0.00 30.157
09/05/2005 2:30 a 67.1 67.1 67.1 67.1 67.1 67 55.8 0.0 1.0 --- 0.00 30.155
09/05/2005 2:40 a 67.1 67.1 67.1 67.1 67.1 68 56.2 0.0 0.0 --- 0.00 30.153
09/05/2005 2:50 a 67.0 67.0 67.0 67.1 67.0 68 56.1 0.0 0.0 --- 0.00 30.156
09/05/2005 3:00 a 66.9 66.9 66.9 67.0 66.8 69 56.4 0.0 0.0 --- 0.00 30.157
09/05/2005 3:10 a 66.7 66.7 66.7 66.8 66.6 69 56.2 0.0 0.0 --- 0.00 30.158
09/05/2005 3:20 a 66.6 66.6 66.6 66.7 66.5 69 56.1 0.0 0.0 --- 0.00 30.159
09/05/2005 3:30 a 66.4 66.4 66.4 66.5 66.3 69 55.9 0.0 0.0 --- 0.00 30.162
09/05/2005 3:40 a 66.2 66.2 66.2 66.3 66.1 70 56.1 0.0 0.0 --- 0.00 30.159
09/05/2005 3:50 a 66.1 66.1 66.1 66.2 66.0 70 56.0 0.0 0.0 --- 0.00 30.164
09/05/2005 4:00 a 65.9 65.9 65.9 66.0 65.7 71 56.2 0.0 1.0 --- 0.00 30.158
09/05/2005 4:10 a 65.7 65.7 65.7 65.8 65.6 71 56.1 0.0 0.0 --- 0.00 30.160
09/05/2005 4:20 a 65.5 65.5 65.5 65.6 65.4 72 56.2 0.0 0.0 --- 0.00 30.164
09/05/2005 4:30 a 65.3 65.3 65.3 65.4 65.2 72 56.1 0.0 2.0 N 0.00 30.162
09/05/2005 4:40 a 65.1 65.1 65.1 65.2 65.0 73 56.2 0.0 0.0 --- 0.00 30.165
09/05/2005 4:50 a 64.9 64.9 64.9 65.0 64.8 73 56.0 0.0 0.0 --- 0.00 30.168
09/05/2005 5:00 a 64.7 64.7 64.7 64.8 64.7 73 55.9 0.0 0.0 --- 0.00 30.173
09/05/2005 5:10 a 64.6 64.6 64.6 64.7 64.6 74 56.1 0.0 0.0 --- 0.00 30.176
09/05/2005 5:20 a 64.5 64.5 64.5 64.6 64.5 74 56.0 0.0 0.0 --- 0.00 30.182
09/05/2005 5:30 a 64.4 64.4 64.4 64.5 64.4 74 55.9 0.0 1.0 --- 0.00 30.182
09/05/2005 5:40 a 64.3 64.3 64.3 64.4 64.3 74 55.8 0.0 0.0 --- 0.00 30.188
09/05/2005 5:50 a 64.2 64.2 64.2 64.3 64.1 75 56.1 0.0 0.0 --- 0.00 30.196
09/05/2005 6:00 a 64.0 64.0 64.0 64.1 63.9 75 55.9 0.0 0.0 --- 0.00 30.199
09/05/2005 6:10 a 63.7 63.7 63.7 63.9 63.6 75 55.6 0.0 0.0 --- 0.00 30.201
09/05/2005 6:20 a 63.5 63.5 63.5 63.6 63.3 76 55.8 0.0 0.0 --- 0.00 30.206
09/05/2005 6:30 a 63.2 63.2 63.2 63.4 63.1 77 55.9 0.0 0.0 --- 0.00 30.211
09/05/2005 6:40 a 63.1 63.1 63.1 63.1 63.0 77 55.8 0.0 0.0 --- 0.00 30.214
09/05/2005 6:50 a 63.0 63.0 63.0 63.0 62.9 78 56.0 0.0 0.0 --- 0.00 30.216
09/05/2005 7:00 a 63.0 63.0 63.0 63.0 62.9 78 56.0 0.0 0.0 --- 0.00 30.215
09/05/2005 7:10 a 63.2 63.2 63.2 63.3 63.0 77 55.9 0.0 1.0 N 0.00 30.216
09/05/2005 7:20 a 63.5 63.5 63.5 63.7 63.3 76 55.8 0.0 0.0 --- 0.00 30.224
09/05/2005 7:30 a 64.0 64.0 64.0 64.2 63.7 74 55.6 0.0 0.0 --- 0.00 30.224
09/05/2005 7:40 a 64.5 64.5 64.5 64.8 64.2 73 55.7 0.0 2.0 N 0.00 30.229
09/05/2005 7:50 a 65.1 65.1 65.1 65.3 64.8 72 55.9 0.0 3.0 E 0.00 30.235
09/05/2005 8:00 a 65.5 65.5 65.5 65.6 65.3 71 55.9 0.0 0.0 --- 0.00 30.232
09/05/2005 8:10 a 65.8 65.8 65.8 65.9 65.6 70 55.8 0.0 1.0 --- 0.00 30.235
09/05/2005 8:20 a 66.1 66.1 66.1 66.4 65.9 69 55.6 0.0 0.0 --- 0.00 30.237
09/05/2005 8:30 a 66.8 66.8 66.8 67.2 66.4 67 55.5 0.0 2.0 ESE 0.00 30.239
09/05/2005 8:40 a 67.6 67.6 67.6 67.9 67.2 66 55.9 0.0 0.0 --- 0.00 30.243
09/05/2005 8:50 a 68.0 68.3 68.3 68.6 68.0 64 55.7 0.0 2.0 ESE 0.00 30.248
09/05/2005 9:00 a 69.0 68.8 68.8 69.2 68.6 63 55.7 0.0 2.0 ESE 0.00 30.248
09/05/2005 9:10 a 70.0 69.5 69.5 69.8 69.1 61 55.5 0.0 1.0 --- 0.00 30.253
09/05/2005 9:20 a 70.0 70.1 70.1 70.3 69.8 60 55.6 0.0 3.0 ESE 0.00 30.256
09/05/2005 9:30 a 71.0 70.6 70.6 71.0 70.3 60 56.1 0.0 1.0 SE 0.00 30.259
09/05/2005 9:40 a 71.7 71.5 71.5 71.9 71.0 57 55.5 0.0 2.0 NNE 0.00 30.260
09/05/2005 9:50 a 71.6 72.1 72.1 72.2 71.9 56 55.6 0.0 1.0 NE 0.00 30.260
09/05/2005 10:00 a 73.0 72.5 72.5 72.7 72.2 55 55.4 0.0 0.0 --- 0.00 30.266
09/05/2005 10:10 a 73.0 72.9 72.9 73.0 72.7 54 55.3 0.0 0.0 --- 0.00 30.262
09/05/2005 10:20 a 73.0 73.4 73.4 73.9 73.0 52 54.7 0.0 2.0 NE 0.00 30.265
09/05/2005 10:30 a 74.0 74.2 74.2 74.5 73.9 50 54.4 0.0 2.0 NE 0.00 30.261
09/05/2005 10:40 a 75.0 74.6 74.6 74.7 74.5 50 54.8 0.0 1.0 SSE 0.00 30.264
09/05/2005 10:50 a 75.0 74.7 74.7 74.8 74.6 50 54.8 0.0 3.0 SE 0.00 30.262
09/05/2005 11:00 a 75.0 74.9 74.9 75.0 74.8 50 55.0 0.0 2.0 NE 0.00 30.262
09/05/2005 11:10 a 75.8 75.5 75.5 75.7 75.0 49 55.0 0.0 4.0 E 0.00 30.259
09/05/2005 11:20 a 75.8 75.7 75.7 75.8 75.7 49 55.2 0.0 1.0 ESE 0.00 30.255
09/05/2005 11:30 a 75.6 75.8 75.8 76.1 75.7 48 54.7 0.0 2.0 NE 0.00 30.253
09/05/2005 11:40 a 75.6 76.4 76.4 76.7 76.1 48 55.3 0.0 1.0 NE 0.00 30.254
09/05/2005 11:50 a 76.2 77.0 77.0 77.3 76.7 46 54.7 0.0 2.0 NE 0.00 30.255
09/05/2005 12:00 p 76.0 77.4 77.4 77.5 77.3 45 54.4 0.0 5.0 NE 0.00 30.250
09/05/2005 12:10 p 77.4 77.7 77.7 78.0 77.5 44 54.1 0.0 2.0 ESE 0.00 30.248
09/05/2005 12:20 p 77.3 78.4 78.4 79.0 78.0 43 54.1 0.0 2.0 NNE 0.00 30.250
09/05/2005 12:30 p 79.0 79.4 79.4 79.7 79.0 42 54.3 1.0 3.0 N 0.00 30.248
09/05/2005 12:40 p 80.0 79.8 79.8 80.1 79.6 41 54.0 0.0 1.0 N 0.00 30.249
09/05/2005 12:50 p 80.0 79.9 79.9 80.2 79.7 41 54.1 0.0 2.0 N 0.00 30.245
09/05/2005 1:00 p 80.0 79.9 79.9 80.0 79.8 40 53.4 1.0 5.0 SE 0.00 30.244
09/05/2005 1:10 p 80.0 80.4 80.4 80.9 80.0 40 53.9 0.0 2.0 SE 0.00 30.242
09/05/2005 1:20 p 80.8 81.1 81.1 81.2 80.9 39 53.8 1.0 5.0 SE 0.00 30.239
09/05/2005 1:30 p 81.0 80.8 80.8 81.0 80.7 40 54.3 1.0 5.0 SE 0.00 30.235
09/05/2005 1:40 p 80.6 81.3 81.3 81.8 80.9 38 53.3 0.0 1.0 N 0.00 30.232
09/05/2005 1:50 p 81.6 81.8 81.8 81.9 81.8 38 53.7 0.0 3.0 N 0.00 30.229
09/05/2005 2:00 p 81.4 81.9 81.9 82.0 81.8 37 53.1 0.0 2.0 E 0.00 30.226
09/05/2005 2:10 p 81.0 82.1 82.1 82.3 82.0 35 51.8 0.0 3.0 ENE 0.00 30.224
09/05/2005 2:20 p 80.8 82.4 82.4 82.4 82.2 34 51.2 0.0 1.0 NE 0.00 30.219
09/05/2005 2:30 p 81.0 82.3 82.3 82.4 82.3 35 51.9 0.0 3.0 E 0.00 30.215
09/05/2005 2:40 p 80.8 82.3 82.3 82.4 82.2 34 51.2 0.0 2.0 E 0.00 30.213
09/05/2005 2:50 p 80.6 82.3 82.3 82.4 82.2 33 50.4 0.0 2.0 N 0.00 30.209
09/05/2005 3:00 p 80.6 82.2 82.2 82.4 82.2 33 50.3 0.0 3.0 N 0.00 30.209
09/05/2005 3:10 p 81.4 82.6 82.6 82.7 82.4 32 49.8 0.0 2.0 NNE 0.00 30.207
09/05/2005 3:20 p 80.6 82.3 82.3 82.5 82.3 33 50.4 0.0 2.0 NNE 0.00 30.200
09/05/2005 3:30 p 80.6 82.3 82.3 82.4 82.3 33 50.4 0.0 2.0 NNE 0.00 30.202
09/05/2005 3:40 p 80.2 82.2 82.2 82.3 81.9 31 48.6 0.0 4.0 ESE 0.00 30.200
09/05/2005 3:50 p 80.6 81.6 81.6 81.9 81.5 33 49.7 0.0 2.0 ENE 0.00 30.194
09/05/2005 4:00 p 81.2 81.6 81.6 81.7 81.5 36 52.1 0.0 3.0 SE 0.00 30.196
09/05/2005 4:10 p 80.8 81.4 81.4 81.7 80.9 39 54.1 1.0 3.0 NNE 0.00 30.196
09/05/2005 4:20 p 80.8 80.6 80.6 80.9 80.4 39 53.4 0.0 2.0 N 0.00 30.197
09/05/2005 4:30 p 80.0 80.1 80.1 80.4 79.8 40 53.6 0.0 2.0 N 0.00 30.206
09/05/2005 4:40 p 79.0 79.4 79.4 79.8 79.2 41 53.7 0.0 3.0 N 0.00 30.207
09/05/2005 4:50 p 79.0 78.9 78.9 79.2 78.6 42 53.9 0.0 2.0 N 0.00 30.209
09/05/2005 5:00 p 77.2 78.4 78.4 78.6 78.3 42 53.4 0.0 2.0 N 0.00 30.209
09/05/2005 5:10 p 77.3 78.1 78.1 78.3 78.0 43 53.8 0.0 2.0 N 0.00 30.215
09/05/2005 5:20 p 77.3 77.9 77.9 78.0 77.8 43 53.6 0.0 2.0 N 0.00 30.218
09/05/2005 5:30 p 77.4 77.7 77.7 77.8 77.5 44 54.1 0.0 1.0 N 0.00 30.217
09/05/2005 5:40 p 75.8 77.4 77.4 77.5 77.2 44 53.8 0.0 1.0 N 0.00 30.219
09/05/2005 5:50 p 75.8 77.0 77.0 77.2 76.9 44 53.4 0.0 2.0 N 0.00 30.222
09/05/2005 6:00 p 75.8 76.7 76.7 76.9 76.5 44 53.2 0.0 2.0 N 0.00 30.225
09/05/2005 6:10 p 75.0 76.3 76.3 76.5 76.2 45 53.4 0.0 1.0 N 0.00 30.227
09/05/2005 6:20 p 75.0 76.0 76.0 76.2 75.8 45 53.1 0.0 1.0 N 0.00 30.225
09/05/2005 6:30 p 76.0 75.6 75.6 75.9 75.3 50 55.7 0.0 1.0 N 0.00 30.226
09/05/2005 6:40 p 75.0 75.0 75.0 75.3 74.8 52 56.2 0.0 0.0 --- 0.00 30.233
09/05/2005 6:50 p 75.0 74.5 74.5 74.8 74.2 54 56.8 0.0 0.0 --- 0.00 30.236
09/05/2005 7:00 p 74.0 73.9 73.9 74.2 73.6 56 57.2 0.0 0.0 --- 0.00 30.243
09/05/2005 7:10 p 73.0 73.3 73.3 73.6 73.0 59 58.1 0.0 0.0 --- 0.00 30.244
09/05/2005 7:20 p 73.0 72.7 72.7 73.0 72.4 60 58.0 0.0 0.0 --- 0.00 30.248
09/05/2005 7:30 p 72.0 72.2 72.2 72.4 71.9 61 58.0 0.0 0.0 --- 0.00 30.255
09/05/2005 7:40 p 72.0 71.6 71.6 71.9 71.2 63 58.4 0.0 0.0 --- 0.00 30.259
09/05/2005 7:50 p 71.0 70.9 70.9 71.2 70.5 65 58.6 0.0 0.0 --- 0.00 30.265
09/05/2005 8:00 p 70.0 70.2 70.2 70.5 70.0 67 58.7 0.0 0.0 --- 0.00 30.269
09/05/2005 8:10 p 70.0 69.7 69.7 70.0 69.5 69 59.1 0.0 0.0 --- 0.00 30.272
09/05/2005 8:20 p 69.0 69.3 69.3 69.5 69.1 70 59.1 0.0 0.0 --- 0.00 30.272
09/05/2005 8:30 p 69.2 69.0 69.0 69.1 68.8 71 59.2 0.0 0.0 --- 0.00 30.274
09/05/2005 8:40 p 69.6 68.5 68.5 68.8 68.1 73 59.5 0.0 0.0 --- 0.00 30.276
09/05/2005 8:50 p 67.7 67.7 67.7 68.1 67.3 75 59.5 0.0 0.0 --- 0.00 30.277
09/05/2005 9:00 p 66.9 66.9 66.9 67.3 66.6 76 59.1 0.0 0.0 --- 0.00 30.275
09/05/2005 9:10 p 66.4 66.4 66.4 66.6 66.1 77 59.0 0.0 0.0 --- 0.00 30.278
09/05/2005 9:20 p 65.9 65.9 65.9 66.1 65.7 78 58.9 0.0 0.0 --- 0.00 30.280
09/05/2005 9:30 p 65.5 65.5 65.5 65.7 65.2 79 58.8 0.0 0.0 --- 0.00 30.274
09/05/2005 9:40 p 65.0 65.0 65.0 65.3 64.9 79 58.3 0.0 0.0 --- 0.00 30.275
09/05/2005 9:50 p 64.8 64.8 64.8 64.9 64.6 80 58.5 0.0 0.0 --- 0.00 30.276
09/05/2005 10:00 p 64.4 64.4 64.4 64.6 64.3 81 58.5 0.0 0.0 --- 0.00 30.273
09/05/2005 10:10 p 64.1 64.1 64.1 64.3 64.0 81 58.2 0.0 0.0 --- 0.00 30.277
09/05/2005 10:20 p 63.9 63.9 63.9 64.0 63.7 82 58.3 0.0 0.0 --- 0.00 30.276
09/05/2005 10:30 p 63.5 63.5 63.5 63.7 63.3 83 58.3 0.0 0.0 --- 0.00 30.276
09/05/2005 10:40 p 63.1 63.1 63.1 63.3 62.9 84 58.2 0.0 0.0 --- 0.00 30.274
09/05/2005 10:50 p 62.8 62.8 62.8 62.9 62.7 84 57.9 0.0 0.0 --- 0.00 30.272
09/05/2005 11:00 p 62.6 62.6 62.6 62.7 62.4 85 58.0 0.0 0.0 --- 0.00 30.275
09/05/2005 11:10 p 62.3 62.3 62.3 62.4 62.1 86 58.1 0.0 0.0 --- 0.00 30.280
09/05/2005 11:20 p 62.0 62.0 62.0 62.1 61.9 86 57.8 0.0 0.0 --- 0.00 30.279
09/05/2005 11:30 p 61.8 61.8 61.8 61.9 61.7 86 57.6 0.0 0.0 --- 0.00 30.277
09/05/2005 11:40 p 61.5 61.5 61.5 61.7 61.3 87 57.6 0.0 0.0 --- 0.00 30.279
09/05/2005 11:50 p 61.2 61.2 61.2 61.4 61.1 88 57.6 0.0 0.0 --- 0.00 30.281
09/06/2005 12:00 a 61.0 61.0 61.0 61.1 60.9 87 57.1 0.0 0.0 --- 0.00 30.280
09/06/2005 12:10 a 60.9 60.9 60.9 61.0 60.9 87 57.0 0.0 0.0 --- 0.00 30.283
09/06/2005 12:20 a 60.8 60.8 60.8 60.9 60.7 87 56.9 0.0 0.0 --- 0.00 30.284
09/06/2005 12:30 a 60.6 60.6 60.6 60.7 60.4 88 57.0 0.0 0.0 --- 0.00 30.289
09/06/2005 12:40 a 60.3 60.3 60.3 60.4 60.2 88 56.7 0.0 0.0 --- 0.00 30.288
09/06/2005 12:50 a 60.1 60.1 60.1 60.2 60.0 89 56.9 0.0 0.0 --- 0.00 30.289
09/06/2005 1:00 a 59.9 59.9 59.9 60.0 59.8 89 56.7 0.0 0.0 --- 0.00 30.285
09/06/2005 1:10 a 59.7 59.7 59.7 59.8 59.7 90 56.8 0.0 0.0 --- 0.00 30.283
09/06/2005 1:20 a 59.6 59.6 59.6 59.7 59.5 90 56.7 0.0 0.0 --- 0.00 30.282
09/06/2005 1:30 a 59.5 59.5 59.5 59.5 59.4 90 56.6 0.0 0.0 --- 0.00 30.286
09/06/2005 1:40 a 59.4 59.4 59.4 59.4 59.3 90 56.5 0.0 0.0 --- 0.00 30.283
09/06/2005 1:50 a 59.3 59.3 59.3 59.4 59.2 90 56.4 0.0 0.0 --- 0.00 30.283
09/06/2005 2:00 a 59.1 59.1 59.1 59.2 59.1 90 56.2 0.0 0.0 --- 0.00 30.284
09/06/2005 2:10 a 59.0 59.0 59.0 59.1 58.9 90 56.1 0.0 0.0 --- 0.00 30.284
09/06/2005 2:20 a 58.9 58.9 58.9 59.0 58.8 90 56.0 0.0 0.0 --- 0.00 30.281
09/06/2005 2:30 a 58.8 58.8 58.8 58.9 58.7 90 55.9 0.0 0.0 --- 0.00 30.280
09/06/2005 2:40 a 58.6 58.6 58.6 58.7 58.6 91 56.0 0.0 0.0 --- 0.00 30.279
09/06/2005 2:50 a 58.5 58.5 58.5 58.6 58.4 92 56.2 0.0 0.0 --- 0.00 30.279
09/06/2005 3:00 a 58.5 58.5 58.5 58.5 58.4 92 56.2 0.0 0.0 --- 0.00 30.278
09/06/2005 3:10 a 58.5 58.5 58.5 58.5 58.4 92 56.2 0.0 0.0 --- 0.00 30.280
09/06/2005 3:20 a 58.4 58.4 58.4 58.5 58.4 91 55.8 0.0 0.0 --- 0.00 30.281
09/06/2005 3:30 a 58.4 58.4 58.4 58.4 58.3 92 56.1 0.0 0.0 --- 0.00 30.278
09/06/2005 3:40 a 58.3 58.3 58.3 58.3 58.3 92 56.0 0.0 0.0 --- 0.00 30.281
09/06/2005 3:50 a 58.2 58.2 58.2 58.3 58.2 92 55.9 0.0 0.0 --- 0.00 30.285
09/06/2005 4:00 a 58.2 58.2 58.2 58.3 58.2 92 55.9 0.0 0.0 --- 0.00 30.283
09/06/2005 4:10 a 58.2 58.2 58.2 58.3 58.2 92 55.9 0.0 0.0 --- 0.00 30.283
09/06/2005 4:20 a 58.3 58.3 58.3 58.3 58.3 92 56.0 0.0 0.0 --- 0.00 30.286
09/06/2005 4:30 a 58.3 58.3 58.3 58.3 58.2 92 56.0 0.0 0.0 --- 0.00 30.288
09/06/2005 4:40 a 58.2 58.2 58.2 58.3 58.2 92 55.9 0.0 0.0 --- 0.00 30.285
09/06/2005 4:50 a 58.2 58.2 58.2 58.3 58.2 92 55.9 0.0 0.0 --- 0.00 30.285
09/06/2005 5:00 a 58.1 58.1 58.1 58.2 58.0 92 55.8 0.0 0.0 --- 0.00 30.289
09/06/2005 5:10 a 58.0 58.0 58.0 58.1 57.9 92 55.7 0.0 0.0 --- 0.00 30.290
09/06/2005 5:20 a 57.8 57.8 57.8 57.9 57.8 92 55.5 0.0 0.0 --- 0.00 30.293
09/06/2005 5:30 a 57.8 57.8 57.8 57.8 57.8 93 55.8 0.0 0.0 --- 0.00 30.293
09/06/2005 5:40 a 57.7 57.7 57.7 57.8 57.6 93 55.7 0.0 0.0 --- 0.00 30.293
09/06/2005 5:50 a 57.6 57.6 57.6 57.6 57.5 92 55.3 0.0 0.0 --- 0.00 30.293
09/06/2005 6:00 a 57.5 57.5 57.5 57.6 57.5 93 55.5 0.0 0.0 --- 0.00 30.292
09/06/2005 6:10 a 57.5 57.5 57.5 57.6 57.5 93 55.5 0.0 0.0 --- 0.00 30.295
09/06/2005 6:20 a 57.5 57.5 57.5 57.5 57.5 93 55.5 0.0 0.0 --- 0.00 30.300
09/06/2005 6:30 a 57.5 57.5 57.5 57.6 57.5 94 55.8 0.0 0.0 --- 0.00 30.304
09/06/2005 6:40 a 57.7 57.7 57.7 57.9 57.6 95 56.3 0.0 0.0 --- 0.00 30.302
09/06/2005 6:50 a 58.3 58.3 58.3 58.6 57.9 95 56.9 0.0 0.0 --- 0.00 30.303
09/06/2005 7:00 a 59.1 59.1 59.1 59.6 58.6 94 57.4 0.0 0.0 --- 0.00 30.302
09/06/2005 7:10 a 60.1 60.1 60.1 60.6 59.6 92 57.8 0.0 0.0 --- 0.00 30.305
09/06/2005 7:20 a 60.9 60.9 60.9 61.1 60.6 92 58.6 0.0 0.0 --- 0.00 30.307
09/06/2005 7:30 a 61.4 61.4 61.4 61.7 61.1 92 59.1 0.0 0.0 --- 0.00 30.309
09/06/2005 7:40 a 62.2 62.2 62.2 62.7 61.7 91 59.5 0.0 0.0 --- 0.00 30.314
09/06/2005 7:50 a 63.4 63.4 63.4 64.1 62.7 87 59.5 0.0 0.0 --- 0.00 30.314
09/06/2005 8:00 a 64.7 64.7 64.7 65.2 64.2 86 60.4 0.0 0.0 --- 0.00 30.311
09/06/2005 8:10 a 65.5 65.5 65.5 65.8 65.2 85 60.9 0.0 0.0 --- 0.00 30.311
09/06/2005 8:20 a 66.1 66.1 66.1 66.5 65.8 84 61.1 0.0 0.0 --- 0.00 30.308
09/06/2005 8:30 a 67.0 67.0 67.0 67.5 66.5 82 61.3 0.0 0.0 --- 0.00 30.305
09/06/2005 8:40 a 67.8 67.8 67.8 68.1 67.5 82 62.1 0.0 0.0 --- 0.00 30.306
09/06/2005 8:50 a 70.0 68.4 68.4 68.8 68.1 80 62.0 0.0 0.0 --- 0.00 30.305
09/06/2005 9:00 a 70.6 69.2 69.2 69.6 68.8 78 62.1 0.0 0.0 --- 0.00 30.303
09/06/2005 9:10 a 71.0 70.0 70.0 70.2 69.6 75 61.7 0.0 0.0 --- 0.00 30.304
09/06/2005 9:20 a 71.2 70.3 70.3 70.5 70.2 76 62.4 0.0 0.0 --- 0.00 30.306
09/06/2005 9:30 a 71.8 71.0 71.0 71.4 70.5 74 62.3 0.0 0.0 --- 0.00 30.304
09/06/2005 9:40 a 72.2 71.6 71.6 71.8 71.4 71 61.7 0.0 0.0 --- 0.00 30.307
09/06/2005 9:50 a 72.0 71.7 71.7 71.9 71.6 69 61.0 0.0 0.0 --- 0.00 30.306
09/06/2005 10:00 a 72.0 72.1 72.1 72.3 71.9 67 60.6 0.0 0.0 --- 0.00 30.307
09/06/2005 10:10 a 73.6 72.5 72.5 72.7 72.3 66 60.5 0.0 0.0 --- 0.00 30.301
09/06/2005 10:20 a 73.5 72.9 72.9 73.1 72.7 65 60.5 0.0 0.0 --- 0.00 30.304
09/06/2005 10:30 a 73.4 73.1 73.1 73.3 73.1 64 60.2 0.0 0.0 --- 0.00 30.303
09/06/2005 10:40 a 74.0 74.1 74.1 74.5 73.4 60 59.3 0.0 0.0 --- 0.00 30.299
09/06/2005 10:50 a 75.0 74.8 74.8 75.2 74.5 58 59.1 0.0 0.0 --- 0.00 30.299
09/06/2005 11:00 a 75.0 75.3 75.3 75.5 75.2 58 59.5 0.0 0.0 --- 0.00 30.298
09/06/2005 11:10 a 76.0 75.9 75.9 76.3 75.5 55 58.6 0.0 0.0 --- 0.00 30.295
09/06/2005 11:20 a 77.0 76.5 76.5 76.8 76.3 54 58.6 0.0 0.0 --- 0.00 30.290
09/06/2005 11:30 a 77.0 76.7 76.7 76.8 76.6 54 58.8 0.0 0.0 --- 0.00 30.291
09/06/2005 11:40 a 77.0 76.6 76.6 76.6 76.6 53 58.2 0.0 0.0 --- 0.00 30.284
09/06/2005 11:50 a 77.0 76.8 76.8 77.0 76.6 53 58.4 0.0 0.0 --- 0.00 30.287
09/06/2005 12:00 p 77.0 77.1 77.1 77.3 77.0 51 57.6 0.0 0.0 --- 0.00 30.285
09/06/2005 12:10 p 77.9 77.5 77.5 77.8 77.3 49 56.9 0.0 0.0 --- 0.00 30.279
09/06/2005 12:20 p 77.8 78.2 78.2 78.5 77.9 48 56.9 0.0 0.0 --- 0.00 30.277
09/06/2005 12:30 p 79.0 78.9 78.9 79.4 78.4 48 57.6 0.0 0.0 --- 0.00 30.274
09/06/2005 12:40 p 80.0 80.0 80.0 80.5 79.4 45 56.8 0.0 0.0 --- 0.00 30.272
09/06/2005 12:50 p 81.0 80.8 80.8 80.9 80.5 44 56.9 0.0 0.0 --- 0.00 30.269
09/06/2005 1:00 p 81.0 80.9 80.9 81.2 80.7 43 56.3 0.0 0.0 --- 0.00 30.263
09/06/2005 1:10 p 82.3 81.6 81.6 82.0 81.2 43 57.0 0.0 0.0 --- 0.00 30.266
09/06/2005 1:20 p 82.3 81.9 81.9 82.1 81.7 43 57.2 0.0 0.0 --- 0.00 30.259
09/06/2005 1:30 p 82.1 81.9 81.9 82.1 81.7 41 55.9 0.0 0.0 --- 0.00 30.255
09/06/2005 1:40 p 82.0 82.1 82.1 82.2 81.9 40 55.4 0.0 0.0 --- 0.00 30.254
09/06/2005 1:50 p 82.0 81.7 81.7 81.9 81.5 40 55.1 0.0 0.0 --- 0.00 30.254
09/06/2005 2:00 p 82.1 81.5 81.5 81.7 81.4 41 55.6 0.0 0.0 --- 0.00 30.249
09/06/2005 2:10 p 82.1 81.7 81.7 81.8 81.6 41 55.7 0.0 0.0 --- 0.00 30.247
09/06/2005 2:20 p 82.1 81.7 81.7 81.8 81.6 41 55.7 0.0 0.0 --- 0.00 30.245
09/06/2005 2:30 p 82.1 81.7 81.7 81.8 81.7 41 55.7 0.0 0.0 --- 0.00 30.245
09/06/2005 2:40 p 82.1 81.9 81.9 82.0 81.7 41 55.9 0.0 0.0 --- 0.00 30.240
09/06/2005 2:50 p 82.0 81.7 81.7 82.0 81.4 40 55.1 0.0 0.0 --- 0.00 30.236
09/06/2005 3:00 p 81.0 81.1 81.1 81.4 80.9 44 57.1 0.0 0.0 --- 0.00 30.234
09/06/2005 3:10 p 81.0 80.8 80.8 80.9 80.7 47 58.7 0.0 0.0 --- 0.00 30.234
09/06/2005 3:20 p 81.0 80.6 80.6 80.7 80.3 44 56.7 0.0 0.0 --- 0.00 30.229
09/06/2005 3:30 p 80.0 80.2 80.2 80.4 80.0 45 57.0 0.0 0.0 --- 0.00 30.230
09/06/2005 3:40 p 80.0 79.9 79.9 80.0 79.8 45 56.7 0.0 0.0 --- 0.00 30.226
09/06/2005 3:50 p 80.0 79.7 79.7 79.8 79.5 46 57.1 0.0 0.0 --- 0.00 30.224
09/06/2005 4:10 p 79.0 79.2 79.2 79.4 79.1 46 56.7 0.0 0.0 --- 0.00 30.229
09/06/2005 4:20 p 79.0 79.0 79.0 79.1 78.7 47 57.1 0.0 0.0 --- 0.00 30.224
09/06/2005 4:30 p 79.0 78.8 78.8 78.9 78.7 46 56.3 0.0 0.0 --- 0.00 30.227
09/06/2005 4:40 p 79.0 78.6 78.6 78.8 78.3 48 57.3 0.0 0.0 --- 0.00 30.227
09/06/2005 4:50 p 78.0 78.1 78.1 78.3 77.9 50 58.0 0.0 0.0 --- 0.00 30.225
09/06/2005 5:00 p 78.2 77.7 77.7 77.9 77.5 52 58.7 0.0 0.0 --- 0.00 30.224
09/06/2005 5:10 p 77.0 77.2 77.2 77.4 77.0 54 59.3 0.0 0.0 --- 0.00 30.224
09/06/2005 5:20 p 77.0 76.7 76.7 77.0 76.4 55 59.3 0.0 0.0 --- 0.00 30.222
09/06/2005 5:30 p 76.0 76.1 76.1 76.4 75.8 55 58.8 0.0 0.0 --- 0.00 30.227
09/06/2005